Observation data for Lomax on 07/04/2020      Previous  Date  Next       Current Mesonet Observations  Soil Data  Daily Summary Page  Observations in Plain Language
KLO1 040500Z 14008KT 28/11 A3004 RMK A01 T02810107  RH  034%=      5-min Rain = 0
KLO1 040501Z 14008KT 28/11 A3004 RMK A01 T02810107  RH  034%=      5-min Rain = 0
KLO1 040502Z 14008KT 28/11 A3004 RMK A01 T02800106  RH  034%=      5-min Rain = 0
KLO1 040503Z 14008KT 28/11 A3004 RMK A01 T02800107  RH  034%=      5-min Rain = 0
KLO1 040504Z 14008KT 28/11 A3003 RMK A01 T02800107  RH  034%=      5-min Rain = 0
KLO1 040505Z 14008KT 28/11 A3003 RMK A01 T02800107  RH  034%=      5-min Rain = 0
KLO1 040506Z 14008KT 28/11 A3003 RMK A01 T02800107  RH  034%=      5-min Rain = 0
KLO1 040507Z 14007KT 28/11 A3003 RMK A01 T02800107  RH  034%=      5-min Rain = 0
KLO1 040508Z 13008KT 28/11 A3004 RMK A01 T02800107  RH  034%=      5-min Rain = 0
KLO1 040509Z 14008KT 28/11 A3004 RMK A01 T02800107  RH  034%=      5-min Rain = 0
KLO1 040510Z 14007KT 28/11 A3004 RMK A01 T02800107  RH  034%=      5-min Rain = 0
KLO1 040511Z 14007KT 28/11 A3004 RMK A01 T02800107  RH  034%=      5-min Rain = 0
KLO1 040512Z 14007KT 28/11 A3004 RMK A01 T02790108  RH  034%=      5-min Rain = 0
KLO1 040513Z 14007KT 28/11 A3004 RMK A01 T02790108  RH  034%=      5-min Rain = 0
KLO1 040514Z 13007KT 28/11 A3004 RMK A01 T02780108  RH  035%=      5-min Rain = 0
KLO1 040515Z 14007KT 28/11 A3004 RMK A01 T02780108  RH  035%=      5-min Rain = 0
KLO1 040516Z 14007KT 28/11 A3004 RMK A01 T02780109  RH  035%=      5-min Rain = 0
KLO1 040517Z 14007KT 28/11 A3004 RMK A01 T02760108  RH  035%=      5-min Rain = 0
KLO1 040518Z 14007KT 28/11 A3004 RMK A01 T02760108  RH  035%=      5-min Rain = 0
KLO1 040519Z 14007KT 28/11 A3004 RMK A01 T02760108  RH  035%=      5-min Rain = 0
KLO1 040520Z 14007KT 28/11 A3004 RMK A01 T02750108  RH  035%=      5-min Rain = 0
KLO1 040521Z 14007KT 28/11 A3003 RMK A01 T02750108  RH  035%=      5-min Rain = 0
KLO1 040522Z 14007KT 28/11 A3003 RMK A01 T02750108  RH  035%=      5-min Rain = 0
KLO1 040523Z 14007KT 27/11 A3003 RMK A01 T02740108  RH  035%=      5-min Rain = 0
KLO1 040524Z 14007KT 27/11 A3003 RMK A01 T02740108  RH  036%=      5-min Rain = 0
KLO1 040525Z 14007KT 27/11 A3003 RMK A01 T02730108  RH  036%=      5-min Rain = 0
KLO1 040526Z 14007KT 27/11 A3003 RMK A01 T02730109  RH  036%=      5-min Rain = 0
KLO1 040527Z 14007KT 27/11 A3003 RMK A01 T02720109  RH  036%=      5-min Rain = 0
KLO1 040528Z 14007KT 27/11 A3003 RMK A01 T02720109  RH  036%=      5-min Rain = 0
KLO1 040529Z 15007KT 27/11 A3003 RMK A01 T02710109  RH  036%=      5-min Rain = 0
KLO1 040530Z 15007KT 27/11 A3003 RMK A01 T02710110  RH  037%=      5-min Rain = 0
KLO1 040531Z 15006KT 27/11 A3003 RMK A01 T02700110  RH  037%=      5-min Rain = 0
KLO1 040532Z 14006KT 27/11 A3003 RMK A01 T02690111  RH  037%=      5-min Rain = 0
KLO1 040533Z 14007KT 27/11 A3003 RMK A01 T02680111  RH  037%=      5-min Rain = 0
KLO1 040534Z 14006KT 27/11 A3003 RMK A01 T02680111  RH  038%=      5-min Rain = 0
KLO1 040535Z 14007KT 27/11 A3003 RMK A01 T02680111  RH  037%=      5-min Rain = 0
KLO1 040536Z 14007KT 27/11 A3003 RMK A01 T02680110  RH  037%=      5-min Rain = 0
KLO1 040537Z 14007KT 27/11 A3003 RMK A01 T02670110  RH  037%=      5-min Rain = 0
KLO1 040538Z 14007KT 27/11 A3003 RMK A01 T02670110  RH  037%=      5-min Rain = 0
KLO1 040539Z 14006KT 27/11 A3003 RMK A01 T02670110  RH  037%=      5-min Rain = 0
KLO1 040540Z 14006KT 27/11 A3003 RMK A01 T02670110  RH  038%=      5-min Rain = 0
KLO1 040541Z 14007KT 27/11 A3003 RMK A01 T02660110  RH  038%=      5-min Rain = 0
KLO1 040542Z 14006KT 27/11 A3003 RMK A01 T02660111  RH  038%=      5-min Rain = 0
KLO1 040543Z 14007KT 27/11 A3003 RMK A01 T02650111  RH  038%=      5-min Rain = 0
KLO1 040544Z 14006KT 27/11 A3003 RMK A01 T02650111  RH  038%=      5-min Rain = 0
KLO1 040545Z 14006KT 26/11 A3003 RMK A01 T02640111  RH  038%=      5-min Rain = 0
KLO1 040546Z 14006KT 26/11 A3003 RMK A01 T02640111  RH  038%=      5-min Rain = 0
KLO1 040547Z 14006KT 26/11 A3003 RMK A01 T02640111  RH  038%=      5-min Rain = 0
KLO1 040548Z 14006KT 26/11 A3003 RMK A01 T02630111  RH  039%=      5-min Rain = 0
KLO1 040549Z 14006KT 26/11 A3003 RMK A01 T02630111  RH  039%=      5-min Rain = 0
KLO1 040550Z 14006KT 26/11 A3003 RMK A01 T02630112  RH  039%=      5-min Rain = 0
KLO1 040551Z 14007KT 26/11 A3003 RMK A01 T02620111  RH  039%=      5-min Rain = 0
KLO1 040552Z 14007KT 26/11 A3003 RMK A01 T02610111  RH  039%=      5-min Rain = 0
KLO1 040553Z 14006KT 26/11 A3003 RMK A01 T02610111  RH  039%=      5-min Rain = 0
KLO1 040554Z 14006KT 26/11 A3003 RMK A01 T02600111  RH  039%=      5-min Rain = 0
KLO1 040555Z 14006KT 26/11 A3003 RMK A01 T02600111  RH  039%=      5-min Rain = 0
KLO1 040556Z 14006KT 26/11 A3003 RMK A01 T02600111  RH  039%=      5-min Rain = 0
KLO1 040557Z 14006KT 26/11 A3003 RMK A01 T02590111  RH  040%=      5-min Rain = 0
KLO1 040558Z 14006KT 26/11 A3003 RMK A01 T02590111  RH  040%=      5-min Rain = 0
KLO1 040559Z 14006KT 26/11 A3003 RMK A01 T02580111  RH  040%=      5-min Rain = 0
KLO1 040600Z 15006KT 26/11 A3003 RMK A01 T02580111  RH  040%=      5-min Rain = 0
KLO1 040601Z 14007KT 26/11 A3002 RMK A01 T02580111  RH  040%=      5-min Rain = 0
KLO1 040602Z 14007KT 26/11 A3002 RMK A01 T02570111  RH  040%=      5-min Rain = 0
KLO1 040603Z 14007KT 26/11 A3002 RMK A01 T02560110  RH  040%=      5-min Rain = 0
KLO1 040604Z 14007KT 26/11 A3002 RMK A01 T02560110  RH  040%=      5-min Rain = 0
KLO1 040605Z 14007KT 26/11 A3002 RMK A01 T02560110  RH  040%=      5-min Rain = 0
KLO1 040606Z 14007KT 26/11 A3002 RMK A01 T02550110  RH  040%=      5-min Rain = 0
KLO1 040607Z 13007KT 26/11 A3002 RMK A01 T02550110  RH  040%=      5-min Rain = 0
KLO1 040608Z 13007KT 26/11 A3002 RMK A01 T02550110  RH  040%=      5-min Rain = 0
KLO1 040609Z 13007KT 26/11 A3002 RMK A01 T02550110  RH  040%=      5-min Rain = 0
KLO1 040610Z 13007KT 26/11 A3002 RMK A01 T02550110  RH  040%=      5-min Rain = 0
KLO1 040611Z 13007KT 26/11 A3002 RMK A01 T02550110  RH  040%=      5-min Rain = 0
KLO1 040612Z 13007KT 26/11 A3002 RMK A01 T02550111  RH  040%=      5-min Rain = 0
KLO1 040613Z 13007KT 26/11 A3002 RMK A01 T02550111  RH  040%=      5-min Rain = 0
KLO1 040614Z 14007KT 26/11 A3002 RMK A01 T02550111  RH  040%=      5-min Rain = 0
KLO1 040615Z 13007KT 26/11 A3002 RMK A01 T02550111  RH  041%=      5-min Rain = 0
KLO1 040616Z 14007KT 26/11 A3002 RMK A01 T02550112  RH  041%=      5-min Rain = 0
KLO1 040617Z 13007KT 26/11 A3002 RMK A01 T02550112  RH  041%=      5-min Rain = 0
KLO1 040618Z 13006KT 26/11 A3002 RMK A01 T02550112  RH  041%=      5-min Rain = 0
KLO1 040619Z 13006KT 26/11 A3002 RMK A01 T02550112  RH  041%=      5-min Rain = 0
KLO1 040620Z 14006KT 25/11 A3002 RMK A01 T02540112  RH  041%=      5-min Rain = 0
KLO1 040621Z 14006KT 25/11 A3002 RMK A01 T02540112  RH  041%=      5-min Rain = 0
KLO1 040622Z 14007KT 25/11 A3002 RMK A01 T02530112  RH  041%=      5-min Rain = 0
KLO1 040623Z 14007KT 25/11 A3002 RMK A01 T02530112  RH  041%=      5-min Rain = 0
KLO1 040624Z 14006KT 25/11 A3002 RMK A01 T02530112  RH  041%=      5-min Rain = 0
KLO1 040625Z 14006KT 25/11 A3002 RMK A01 T02520112  RH  041%=      5-min Rain = 0
KLO1 040626Z 14006KT 25/11 A3002 RMK A01 T02530112  RH  041%=      5-min Rain = 0
KLO1 040627Z 14005KT 25/11 A3002 RMK A01 T02520112  RH  041%=      5-min Rain = 0
KLO1 040628Z 14006KT 25/11 A3002 RMK A01 T02520112  RH  041%=      5-min Rain = 0
KLO1 040629Z 14006KT 25/11 A3002 RMK A01 T02520112  RH  042%=      5-min Rain = 0
KLO1 040630Z 14006KT 25/11 A3002 RMK A01 T02510112  RH  042%=      5-min Rain = 0
KLO1 040631Z 14006KT 25/11 A3002 RMK A01 T02510112  RH  042%=      5-min Rain = 0
KLO1 040632Z 14006KT 25/11 A3002 RMK A01 T02510113  RH  042%=      5-min Rain = 0
KLO1 040633Z 15005KT 25/11 A3002 RMK A01 T02510112  RH  042%=      5-min Rain = 0
KLO1 040634Z 15005KT 25/11 A3002 RMK A01 T02510112  RH  042%=      5-min Rain = 0
KLO1 040635Z 15005KT 25/11 A3002 RMK A01 T02500112  RH  042%=      5-min Rain = 0
KLO1 040636Z 15004KT 25/11 A3002 RMK A01 T02500112  RH  042%=      5-min Rain = 0
KLO1 040637Z 16004KT 25/11 A3002 RMK A01 T02490112  RH  042%=      5-min Rain = 0
KLO1 040638Z 16004KT 25/11 A3002 RMK A01 T02490112  RH  042%=      5-min Rain = 0
KLO1 040639Z 16004KT 25/11 A3002 RMK A01 T02490112  RH  042%=      5-min Rain = 0
KLO1 040640Z 17004KT 25/11 A3002 RMK A01 T02480112  RH  042%=      5-min Rain = 0
KLO1 040641Z 17005KT 25/11 A3002 RMK A01 T02480112  RH  042%=      5-min Rain = 0
KLO1 040642Z 16005KT 25/11 A3002 RMK A01 T02480112  RH  042%=      5-min Rain = 0
KLO1 040643Z 16005KT 25/11 A3002 RMK A01 T02480111  RH  042%=      5-min Rain = 0
KLO1 040644Z 16005KT 25/11 A3002 RMK A01 T02480111  RH  042%=      5-min Rain = 0
KLO1 040645Z 16006KT 25/11 A3002 RMK A01 T02480111  RH  042%=      5-min Rain = 0
KLO1 040646Z 16006KT 25/11 A3002 RMK A01 T02480111  RH  042%=      5-min Rain = 0
KLO1 040647Z 16006KT 25/11 A3002 RMK A01 T02490112  RH  042%=      5-min Rain = 0
KLO1 040648Z 16006KT 25/11 A3002 RMK A01 T02490112  RH  042%=      5-min Rain = 0
KLO1 040649Z 16006KT 25/11 A3002 RMK A01 T02510112  RH  042%=      5-min Rain = 0
KLO1 040650Z 16006KT 25/11 A3002 RMK A01 T02520111  RH  041%=      5-min Rain = 0
KLO1 040651Z 16006KT 25/11 A3002 RMK A01 T02530111  RH  041%=      5-min Rain = 0
KLO1 040652Z 16006KT 25/11 A3002 RMK A01 T02540110  RH  040%=      5-min Rain = 0
KLO1 040653Z 16006KT 26/11 A3002 RMK A01 T02550110  RH  040%=      5-min Rain = 0
KLO1 040654Z 16005KT 26/11 A3002 RMK A01 T02560110  RH  040%=      5-min Rain = 0
KLO1 040655Z 16005KT 26/11 A3002 RMK A01 T02560109  RH  040%=      5-min Rain = 0
KLO1 040656Z 17005KT 26/11 A3002 RMK A01 T02560110  RH  040%=      5-min Rain = 0
KLO1 040657Z 17005KT 26/11 A3002 RMK A01 T02560110  RH  040%=      5-min Rain = 0
KLO1 040658Z 17005KT 26/11 A3002 RMK A01 T02560110  RH  040%=      5-min Rain = 0
KLO1 040659Z 17005KT 26/11 A3002 RMK A01 T02560109  RH  040%=      5-min Rain = 0
KLO1 040700Z 16005KT 26/11 A3002 RMK A01 T02560110  RH  040%=      5-min Rain = 0
KLO1 040701Z 16005KT 26/11 A3002 RMK A01 T02560109  RH  040%=      5-min Rain = 0
KLO1 040702Z 16005KT 26/11 A3002 RMK A01 T02560109  RH  040%=      5-min Rain = 0
KLO1 040703Z 16006KT 26/11 A3002 RMK A01 T02560109  RH  040%=      5-min Rain = 0
KLO1 040704Z 16006KT 26/11 A3002 RMK A01 T02550109  RH  040%=      5-min Rain = 0
KLO1 040705Z 16006KT 26/11 A3002 RMK A01 T02560109  RH  040%=      5-min Rain = 0
KLO1 040706Z 16006KT 26/11 A3002 RMK A01 T02560109  RH  040%=      5-min Rain = 0
KLO1 040707Z 16005KT 26/11 A3002 RMK A01 T02550109  RH  040%=      5-min Rain = 0
KLO1 040708Z 16005KT 26/11 A3002 RMK A01 T02550109  RH  040%=      5-min Rain = 0
KLO1 040709Z 16005KT 26/11 A3002 RMK A01 T02550109  RH  040%=      5-min Rain = 0
KLO1 040710Z 16005KT 25/11 A3002 RMK A01 T02540109  RH  040%=      5-min Rain = 0
KLO1 040711Z 16006KT 25/11 A3002 RMK A01 T02540110  RH  040%=      5-min Rain = 0
KLO1 040712Z 16006KT 25/11 A3002 RMK A01 T02540110  RH  040%=      5-min Rain = 0
KLO1 040713Z 16006KT 25/11 A3001 RMK A01 T02540110  RH  040%=      5-min Rain = 0
KLO1 040714Z 16006KT 25/11 A3001 RMK A01 T02540110  RH  041%=      5-min Rain = 0
KLO1 040715Z 16006KT 25/11 A3001 RMK A01 T02530110  RH  041%=      5-min Rain = 0
KLO1 040716Z 16005KT 25/11 A3001 RMK A01 T02530111  RH  041%=      5-min Rain = 0
KLO1 040717Z 16005KT 25/11 A3001 RMK A01 T02520111  RH  041%=      5-min Rain = 0
KLO1 040718Z 15005KT 25/11 A3001 RMK A01 T02520110  RH  041%=      5-min Rain = 0
KLO1 040719Z 16005KT 25/11 A3001 RMK A01 T02520110  RH  041%=      5-min Rain = 0
KLO1 040720Z 16005KT 25/11 A3001 RMK A01 T02510109  RH  041%=      5-min Rain = 0
KLO1 040721Z 16005KT 25/11 A3001 RMK A01 T02510108  RH  041%=      5-min Rain = 0
KLO1 040722Z 16006KT 25/11 A3001 RMK A01 T02510108  RH  041%=      5-min Rain = 0
KLO1 040723Z 15005KT 25/11 A3001 RMK A01 T02510108  RH  041%=      5-min Rain = 0
KLO1 040724Z 15005KT 25/11 A3001 RMK A01 T02510108  RH  041%=      5-min Rain = 0
KLO1 040725Z 15006KT 25/11 A3001 RMK A01 T02510108  RH  041%=      5-min Rain = 0
KLO1 040726Z 15006KT 25/11 A3001 RMK A01 T02500107  RH  041%=      5-min Rain = 0
KLO1 040727Z 15005KT 25/11 A3001 RMK A01 T02500107  RH  041%=      5-min Rain = 0
KLO1 040728Z 15006KT 25/11 A3001 RMK A01 T02490107  RH  041%=      5-min Rain = 0
KLO1 040729Z 15006KT 25/11 A3001 RMK A01 T02490107  RH  041%=      5-min Rain = 0
KLO1 040730Z 15006KT 25/11 A3001 RMK A01 T02480106  RH  041%=      5-min Rain = 0
KLO1 040731Z 15006KT 25/11 A3001 RMK A01 T02480107  RH  041%=      5-min Rain = 0
KLO1 040732Z 15006KT 25/11 A3001 RMK A01 T02480107  RH  041%=      5-min Rain = 0
KLO1 040733Z 15006KT 25/11 A3001 RMK A01 T02480107  RH  041%=      5-min Rain = 0
KLO1 040734Z 15006KT 25/11 A3001 RMK A01 T02480106  RH  041%=      5-min Rain = 0
KLO1 040735Z 15006KT 25/11 A3001 RMK A01 T02480107  RH  041%=      5-min Rain = 0
KLO1 040736Z 15006KT 25/11 A3001 RMK A01 T02480106  RH  041%=      5-min Rain = 0
KLO1 040737Z 15006KT 25/11 A3001 RMK A01 T02470106  RH  041%=      5-min Rain = 0
KLO1 040738Z 15006KT 25/11 A3001 RMK A01 T02470106  RH  041%=      5-min Rain = 0
KLO1 040739Z 15006KT 25/11 A3001 RMK A01 T02470106  RH  041%=      5-min Rain = 0
KLO1 040740Z 15006KT 25/11 A3001 RMK A01 T02470106  RH  041%=      5-min Rain = 0
KLO1 040741Z 15005KT 25/11 A3001 RMK A01 T02470106  RH  041%=      5-min Rain = 0
KLO1 040742Z 15005KT 25/11 A3001 RMK A01 T02460106  RH  041%=      5-min Rain = 0
KLO1 040743Z 15005KT 25/11 A3001 RMK A01 T02460106  RH  041%=      5-min Rain = 0
KLO1 040744Z 15005KT 25/11 A3001 RMK A01 T02460107  RH  042%=      5-min Rain = 0
KLO1 040745Z 15004KT 25/11 A3001 RMK A01 T02450107  RH  042%=      5-min Rain = 0
KLO1 040746Z 15004KT 25/11 A3001 RMK A01 T02450107  RH  042%=      5-min Rain = 0
KLO1 040747Z 15005KT 24/11 A3001 RMK A01 T02440107  RH  042%=      5-min Rain = 0
KLO1 040748Z 15005KT 24/11 A3001 RMK A01 T02440108  RH  042%=      5-min Rain = 0
KLO1 040749Z 15005KT 24/11 A3001 RMK A01 T02430107  RH  042%=      5-min Rain = 0
KLO1 040750Z 15004KT 24/11 A3001 RMK A01 T02430108  RH  042%=      5-min Rain = 0
KLO1 040751Z 15005KT 24/11 A3001 RMK A01 T02420108  RH  043%=      5-min Rain = 0
KLO1 040752Z 15005KT 24/11 A3001 RMK A01 T02420108  RH  043%=      5-min Rain = 0
KLO1 040753Z 15005KT 24/11 A3001 RMK A01 T02420108  RH  043%=      5-min Rain = 0
KLO1 040754Z 15005KT 24/11 A3001 RMK A01 T02410108  RH  043%=      5-min Rain = 0
KLO1 040755Z 15005KT 24/11 A3001 RMK A01 T02410108  RH  043%=      5-min Rain = 0
KLO1 040756Z 15005KT 24/11 A3001 RMK A01 T02400108  RH  043%=      5-min Rain = 0
KLO1 040757Z 15005KT 24/11 A3001 RMK A01 T02400108  RH  043%=      5-min Rain = 0
KLO1 040758Z 15005KT 24/11 A3001 RMK A01 T02400108  RH  044%=      5-min Rain = 0
KLO1 040759Z 15005KT 24/11 A3001 RMK A01 T02400109  RH  044%=      5-min Rain = 0
KLO1 040800Z 15006KT 24/11 A3001 RMK A01 T02390109  RH  044%=      5-min Rain = 0
KLO1 040801Z 15005KT 24/11 A3001 RMK A01 T02390109  RH  044%=      5-min Rain = 0
KLO1 040802Z 15005KT 24/11 A3001 RMK A01 T02390109  RH  044%=      5-min Rain = 0
KLO1 040803Z 15005KT 24/11 A3001 RMK A01 T02380110  RH  044%=      5-min Rain = 0
KLO1 040804Z 16005KT 24/11 A3001 RMK A01 T02380110  RH  044%=      5-min Rain = 0
KLO1 040805Z 16005KT 24/11 A3001 RMK A01 T02380110  RH  045%=      5-min Rain = 0
KLO1 040806Z 16004KT 24/11 A3001 RMK A01 T02380111  RH  045%=      5-min Rain = 0
KLO1 040807Z 16005KT 24/11 A3001 RMK A01 T02380111  RH  045%=      5-min Rain = 0
KLO1 040808Z 16005KT 24/11 A3001 RMK A01 T02370111  RH  045%=      5-min Rain = 0
KLO1 040809Z 16005KT 24/11 A3001 RMK A01 T02370111  RH  045%=      5-min Rain = 0
KLO1 040810Z 16005KT 24/11 A3001 RMK A01 T02370111  RH  045%=      5-min Rain = 0
KLO1 040811Z 16004KT 24/11 A3001 RMK A01 T02370110  RH  045%=      5-min Rain = 0
KLO1 040812Z 17004KT 24/11 A3001 RMK A01 T02370110  RH  045%=      5-min Rain = 0
KLO1 040813Z 17004KT 24/11 A3001 RMK A01 T02370110  RH  045%=      5-min Rain = 0
KLO1 040814Z 17004KT 24/11 A3001 RMK A01 T02370110  RH  045%=      5-min Rain = 0
KLO1 040815Z 17004KT 24/11 A3001 RMK A01 T02370110  RH  045%=      5-min Rain = 0
KLO1 040816Z 16004KT 24/11 A3001 RMK A01 T02380111  RH  045%=      5-min Rain = 0
KLO1 040817Z 16004KT 24/11 A3001 RMK A01 T02380111  RH  045%=      5-min Rain = 0
KLO1 040818Z 16004KT 24/11 A3001 RMK A01 T02380111  RH  045%=      5-min Rain = 0
KLO1 040819Z 16004KT 24/11 A3001 RMK A01 T02380111  RH  045%=      5-min Rain = 0
KLO1 040820Z 17004KT 24/11 A3001 RMK A01 T02380111  RH  045%=      5-min Rain = 0
KLO1 040821Z 17004KT 24/11 A3001 RMK A01 T02370111  RH  045%=      5-min Rain = 0
KLO1 040822Z 17004KT 24/11 A3001 RMK A01 T02370112  RH  045%=      5-min Rain = 0
KLO1 040823Z 18004KT 24/11 A3001 RMK A01 T02370112  RH  045%=      5-min Rain = 0
KLO1 040824Z 18004KT 24/11 A3001 RMK A01 T02370112  RH  046%=      5-min Rain = 0
KLO1 040825Z 18004KT 24/11 A3001 RMK A01 T02360112  RH  046%=      5-min Rain = 0
KLO1 040826Z 18004KT 24/11 A3001 RMK A01 T02360113  RH  046%=      5-min Rain = 0
KLO1 040827Z 18004KT 24/11 A3001 RMK A01 T02350114  RH  046%=      5-min Rain = 0
KLO1 040828Z 18004KT 24/12 A3001 RMK A01 T02350115  RH  047%=      5-min Rain = 0
KLO1 040829Z 18004KT 24/12 A3001 RMK A01 T02350115  RH  047%=      5-min Rain = 0
KLO1 040830Z 18004KT 24/11 A3001 RMK A01 T02350114  RH  047%=      5-min Rain = 0
KLO1 040831Z 18003KT 24/11 A3001 RMK A01 T02350114  RH  047%=      5-min Rain = 0
KLO1 040832Z 18003KT 23/11 A3001 RMK A01 T02340114  RH  047%=      5-min Rain = 0
KLO1 040833Z 18002KT 24/12 A3001 RMK A01 T02350115  RH  047%=      5-min Rain = 0
KLO1 040834Z 17002KT 24/12 A3001 RMK A01 T02350115  RH  047%=      5-min Rain = 0
KLO1 040835Z 17002KT 24/12 A3001 RMK A01 T02350115  RH  047%=      5-min Rain = 0
KLO1 040836Z 16002KT 24/12 A3001 RMK A01 T02350115  RH  047%=      5-min Rain = 0
KLO1 040837Z 16002KT 23/11 A3001 RMK A01 T02340114  RH  047%=      5-min Rain = 0
KLO1 040838Z 15002KT 23/11 A3001 RMK A01 T02340114  RH  047%=      5-min Rain = 0
KLO1 040839Z 15003KT 23/11 A3001 RMK A01 T02340114  RH  047%=      5-min Rain = 0
KLO1 040840Z 14003KT 23/11 A3001 RMK A01 T02340113  RH  047%=      5-min Rain = 0
KLO1 040841Z 13003KT 23/11 A3001 RMK A01 T02330112  RH  047%=      5-min Rain = 0
KLO1 040842Z 13003KT 23/11 A3001 RMK A01 T02320113  RH  047%=      5-min Rain = 0
KLO1 040843Z 14003KT 23/11 A3001 RMK A01 T02310112  RH  047%=      5-min Rain = 0
KLO1 040844Z 14004KT 23/11 A3001 RMK A01 T02300112  RH  047%=      5-min Rain = 0
KLO1 040845Z 14004KT 23/11 A3001 RMK A01 T02290111  RH  047%=      5-min Rain = 0
KLO1 040846Z 14004KT 23/11 A3001 RMK A01 T02280111  RH  048%=      5-min Rain = 0
KLO1 040847Z 15004KT 23/11 A3001 RMK A01 T02280111  RH  047%=      5-min Rain = 0
KLO1 040848Z 15004KT 23/11 A3001 RMK A01 T02280110  RH  047%=      5-min Rain = 0
KLO1 040849Z 15004KT 23/11 A3001 RMK A01 T02290110  RH  047%=      5-min Rain = 0
KLO1 040850Z 16004KT 23/11 A3002 RMK A01 T02290110  RH  047%=      5-min Rain = 0
KLO1 040851Z 16004KT 23/11 A3002 RMK A01 T02290110  RH  047%=      5-min Rain = 0
KLO1 040852Z 16004KT 23/11 A3002 RMK A01 T02300110  RH  047%=      5-min Rain = 0
KLO1 040853Z 16004KT 23/11 A3002 RMK A01 T02300110  RH  047%=      5-min Rain = 0
KLO1 040854Z 16004KT 23/11 A3002 RMK A01 T02300110  RH  047%=      5-min Rain = 0
KLO1 040855Z 16004KT 23/11 A3002 RMK A01 T02300110  RH  047%=      5-min Rain = 0
KLO1 040856Z 15004KT 23/11 A3002 RMK A01 T02300110  RH  047%=      5-min Rain = 0
KLO1 040857Z 15004KT 23/11 A3002 RMK A01 T02300110  RH  047%=      5-min Rain = 0
KLO1 040858Z 15005KT 23/11 A3002 RMK A01 T02300110  RH  047%=      5-min Rain = 0
KLO1 040859Z 14005KT 23/11 A3002 RMK A01 T02300110  RH  047%=      5-min Rain = 0
KLO1 040900Z 14004KT 23/11 A3002 RMK A01 T02310110  RH  046%=      5-min Rain = 0
KLO1 040901Z 14005KT 23/11 A3002 RMK A01 T02300110  RH  047%=      5-min Rain = 0
KLO1 040902Z 14004KT 23/11 A3002 RMK A01 T02300111  RH  047%=      5-min Rain = 0
KLO1 040903Z 14004KT 23/11 A3002 RMK A01 T02300111  RH  047%=      5-min Rain = 0
KLO1 040904Z 14004KT 23/11 A3002 RMK A01 T02290112  RH  047%=      5-min Rain = 0
KLO1 040905Z 14004KT 23/11 A3002 RMK A01 T02290112  RH  048%=      5-min Rain = 0
KLO1 040906Z 14004KT 23/11 A3002 RMK A01 T02290112  RH  048%=      5-min Rain = 0
KLO1 040907Z 14004KT 23/11 A3003 RMK A01 T02290112  RH  048%=      5-min Rain = 0
KLO1 040908Z 14004KT 23/11 A3003 RMK A01 T02280112  RH  048%=      5-min Rain = 0
KLO1 040909Z 14004KT 23/11 A3003 RMK A01 T02290112  RH  048%=      5-min Rain = 0
KLO1 040910Z 14003KT 23/11 A3003 RMK A01 T02290112  RH  048%=      5-min Rain = 0
KLO1 040911Z 14003KT 23/11 A3003 RMK A01 T02290112  RH  048%=      5-min Rain = 0
KLO1 040912Z 14003KT 23/11 A3003 RMK A01 T02280111  RH  047%=      5-min Rain = 0
KLO1 040913Z 14003KT 23/11 A3003 RMK A01 T02290111  RH  047%=      5-min Rain = 0
KLO1 040914Z 14003KT 23/11 A3003 RMK A01 T02290110  RH  047%=      5-min Rain = 0
KLO1 040915Z 14003KT 23/11 A3003 RMK A01 T02300110  RH  047%=      5-min Rain = 0
KLO1 040916Z 14004KT 23/11 A3003 RMK A01 T02300110  RH  047%=      5-min Rain = 0
KLO1 040917Z 14004KT 23/11 A3003 RMK A01 T02300110  RH  047%=      5-min Rain = 0
KLO1 040918Z 14004KT 23/11 A3003 RMK A01 T02300111  RH  047%=      5-min Rain = 0
KLO1 040919Z 14004KT 23/11 A3003 RMK A01 T02300110  RH  047%=      5-min Rain = 0
KLO1 040920Z 14004KT 23/11 A3003 RMK A01 T02300110  RH  047%=      5-min Rain = 0
KLO1 040921Z 14004KT 23/11 A3003 RMK A01 T02300110  RH  047%=      5-min Rain = 0
KLO1 040922Z 14004KT 23/11 A3003 RMK A01 T02300111  RH  047%=      5-min Rain = 0
KLO1 040923Z 14004KT 23/11 A3003 RMK A01 T02290111  RH  047%=      5-min Rain = 0
KLO1 040924Z 14004KT 23/11 A3003 RMK A01 T02290111  RH  047%=      5-min Rain = 0
KLO1 040925Z 14004KT 23/11 A3004 RMK A01 T02290111  RH  047%=      5-min Rain = 0
KLO1 040926Z 14004KT 23/11 A3004 RMK A01 T02290111  RH  047%=      5-min Rain = 0
KLO1 040927Z 14004KT 23/11 A3004 RMK A01 T02280111  RH  048%=      5-min Rain = 0
KLO1 040928Z 14004KT 23/11 A3004 RMK A01 T02280111  RH  048%=      5-min Rain = 0
KLO1 040929Z 14004KT 23/11 A3004 RMK A01 T02280111  RH  048%=      5-min Rain = 0
KLO1 040930Z 14004KT 23/11 A3003 RMK A01 T02280112  RH  048%=      5-min Rain = 0
KLO1 040931Z 14004KT 23/11 A3003 RMK A01 T02280112  RH  048%=      5-min Rain = 0
KLO1 040932Z 14003KT 23/11 A3003 RMK A01 T02280112  RH  048%=      5-min Rain = 0
KLO1 040933Z 13004KT 23/11 A3003 RMK A01 T02280112  RH  048%=      5-min Rain = 0
KLO1 040934Z 13004KT 23/11 A3003 RMK A01 T02280112  RH  048%=      5-min Rain = 0
KLO1 040935Z 13004KT 23/11 A3003 RMK A01 T02270112  RH  048%=      5-min Rain = 0
KLO1 040936Z 13004KT 23/11 A3003 RMK A01 T02270113  RH  048%=      5-min Rain = 0
KLO1 040937Z 13004KT 23/11 A3003 RMK A01 T02270113  RH  048%=      5-min Rain = 0
KLO1 040938Z 13004KT 23/11 A3003 RMK A01 T02270113  RH  049%=      5-min Rain = 0
KLO1 040939Z 14004KT 23/11 A3003 RMK A01 T02260113  RH  049%=      5-min Rain = 0
KLO1 040940Z 14004KT 23/11 A3003 RMK A01 T02260113  RH  049%=      5-min Rain = 0
KLO1 040941Z 14004KT 23/11 A3003 RMK A01 T02260113  RH  049%=      5-min Rain = 0
KLO1 040942Z 14004KT 23/11 A3003 RMK A01 T02260113  RH  049%=      5-min Rain = 0
KLO1 040943Z 14004KT 23/11 A3003 RMK A01 T02260114  RH  049%=      5-min Rain = 0
KLO1 040944Z 14004KT 23/12 A3003 RMK A01 T02260115  RH  049%=      5-min Rain = 0
KLO1 040945Z 14004KT 23/12 A3003 RMK A01 T02260115  RH  050%=      5-min Rain = 0
KLO1 040946Z 14004KT 23/12 A3003 RMK A01 T02250115  RH  050%=      5-min Rain = 0
KLO1 040947Z 15004KT 23/12 A3003 RMK A01 T02250115  RH  050%=      5-min Rain = 0
KLO1 040948Z 14004KT 23/12 A3003 RMK A01 T02250115  RH  050%=      5-min Rain = 0
KLO1 040949Z 14004KT 23/12 A3003 RMK A01 T02250115  RH  050%=      5-min Rain = 0
KLO1 040950Z 14004KT 23/12 A3003 RMK A01 T02250116  RH  050%=      5-min Rain = 0
KLO1 040951Z 14004KT 23/12 A3003 RMK A01 T02250116  RH  050%=      5-min Rain = 0
KLO1 040952Z 14004KT 22/12 A3003 RMK A01 T02240116  RH  050%=      5-min Rain = 0
KLO1 040953Z 14004KT 22/12 A3003 RMK A01 T02240116  RH  050%=      5-min Rain = 0
KLO1 040954Z 14004KT 22/12 A3003 RMK A01 T02240116  RH  050%=      5-min Rain = 0
KLO1 040955Z 14004KT 22/12 A3003 RMK A01 T02240115  RH  050%=      5-min Rain = 0
KLO1 040956Z 14004KT 22/12 A3003 RMK A01 T02240116  RH  050%=      5-min Rain = 0
KLO1 040957Z 14005KT 22/12 A3003 RMK A01 T02240116  RH  050%=      5-min Rain = 0
KLO1 040958Z 15005KT 22/12 A3003 RMK A01 T02240117  RH  051%=      5-min Rain = 0
KLO1 040959Z 15005KT 22/12 A3002 RMK A01 T02230117  RH  051%=      5-min Rain = 0
KLO1 041000Z 15005KT 22/12 A3002 RMK A01 T02230116  RH  051%=      5-min Rain = 0
KLO1 041001Z 15005KT 22/12 A3002 RMK A01 T02230117  RH  051%=      5-min Rain = 0
KLO1 041002Z 15005KT 22/12 A3002 RMK A01 T02230116  RH  051%=      5-min Rain = 0
KLO1 041003Z 15005KT 22/12 A3002 RMK A01 T02230116  RH  051%=      5-min Rain = 0
KLO1 041004Z 15005KT 22/12 A3002 RMK A01 T02220116  RH  051%=      5-min Rain = 0
KLO1 041005Z 15005KT 22/12 A3002 RMK A01 T02220116  RH  051%=      5-min Rain = 0
KLO1 041006Z 15005KT 22/12 A3002 RMK A01 T02220116  RH  051%=      5-min Rain = 0
KLO1 041007Z 16005KT 22/12 A3002 RMK A01 T02220116  RH  051%=      5-min Rain = 0
KLO1 041008Z 16005KT 22/12 A3002 RMK A01 T02220116  RH  051%=      5-min Rain = 0
KLO1 041009Z 16004KT 22/12 A3002 RMK A01 T02230116  RH  051%=      5-min Rain = 0
KLO1 041010Z 17004KT 22/12 A3002 RMK A01 T02230116  RH  051%=      5-min Rain = 0
KLO1 041011Z 17004KT 22/12 A3002 RMK A01 T02230116  RH  051%=      5-min Rain = 0
KLO1 041012Z 17004KT 22/12 A3002 RMK A01 T02230117  RH  051%=      5-min Rain = 0
KLO1 041013Z 17004KT 22/12 A3002 RMK A01 T02230117  RH  051%=      5-min Rain = 0
KLO1 041014Z 17003KT 22/12 A3002 RMK A01 T02230117  RH  051%=      5-min Rain = 0
KLO1 041015Z 17003KT 22/12 A3002 RMK A01 T02240117  RH  051%=      5-min Rain = 0
KLO1 041016Z 17003KT 22/12 A3002 RMK A01 T02240117  RH  051%=      5-min Rain = 0
KLO1 041017Z 17003KT 22/12 A3002 RMK A01 T02240117  RH  051%=      5-min Rain = 0
KLO1 041018Z 18002KT 22/12 A3002 RMK A01 T02240118  RH  051%=      5-min Rain = 0
KLO1 041019Z 18002KT 22/12 A3002 RMK A01 T02240118  RH  051%=      5-min Rain = 0
KLO1 041020Z 18002KT 23/12 A3002 RMK A01 T02250118  RH  051%=      5-min Rain = 0
KLO1 041021Z 19001KT 22/12 A3002 RMK A01 T02240119  RH  051%=      5-min Rain = 0
KLO1 041022Z 19000KT 22/12 A3002 RMK A01 T02230119  RH  052%=      5-min Rain = 0
KLO1 041023Z 00000KT 22/12 A3002 RMK A01 T02230118  RH  052%=      5-min Rain = 0
KLO1 041024Z 00000KT 22/12 A3002 RMK A01 T02230118  RH  052%=      5-min Rain = 0
KLO1 041025Z 29000KT 22/12 A3002 RMK A01 T02230118  RH  051%=      5-min Rain = 0
KLO1 041026Z 30001KT 22/12 A3002 RMK A01 T02230118  RH  051%=      5-min Rain = 0
KLO1 041027Z 32001KT 22/12 A3002 RMK A01 T02230118  RH  051%=      5-min Rain = 0
KLO1 041028Z 32001KT 22/12 A3002 RMK A01 T02230118  RH  051%=      5-min Rain = 0
KLO1 041029Z 33002KT 22/12 A3002 RMK A01 T02230119  RH  052%=      5-min Rain = 0
KLO1 041030Z 33002KT 22/12 A3002 RMK A01 T02220117  RH  051%=      5-min Rain = 0
KLO1 041031Z 33002KT 22/12 A3002 RMK A01 T02210116  RH  051%=      5-min Rain = 0
KLO1 041032Z 34002KT 22/12 A3002 RMK A01 T02210116  RH  051%=      5-min Rain = 0
KLO1 041033Z 34002KT 22/12 A3002 RMK A01 T02200117  RH  052%=      5-min Rain = 0
KLO1 041034Z 35002KT 22/12 A3002 RMK A01 T02200117  RH  052%=      5-min Rain = 0
KLO1 041035Z 35002KT 22/12 A3002 RMK A01 T02190118  RH  053%=      5-min Rain = 0
KLO1 041036Z 35002KT 22/12 A3003 RMK A01 T02190117  RH  052%=      5-min Rain = 0
KLO1 041037Z 35002KT 22/12 A3003 RMK A01 T02200117  RH  052%=      5-min Rain = 0
KLO1 041038Z 34002KT 22/12 A3003 RMK A01 T02200117  RH  052%=      5-min Rain = 0
KLO1 041039Z 34002KT 22/12 A3003 RMK A01 T02200117  RH  052%=      5-min Rain = 0
KLO1 041040Z 34002KT 22/12 A3003 RMK A01 T02200116  RH  051%=      5-min Rain = 0
KLO1 041041Z 32001KT 22/12 A3002 RMK A01 T02200116  RH  051%=      5-min Rain = 0
KLO1 041042Z 31001KT 22/12 A3002 RMK A01 T02210117  RH  052%=      5-min Rain = 0
KLO1 041043Z 32002KT 22/12 A3002 RMK A01 T02210116  RH  051%=      5-min Rain = 0
KLO1 041044Z 32002KT 22/12 A3002 RMK A01 T02210116  RH  051%=      5-min Rain = 0
KLO1 041045Z 33001KT 22/12 A3002 RMK A01 T02210117  RH  052%=      5-min Rain = 0
KLO1 041046Z 30002KT 22/12 A3002 RMK A01 T02220118  RH  052%=      5-min Rain = 0
KLO1 041047Z 32002KT 22/12 A3002 RMK A01 T02220116  RH  051%=      5-min Rain = 0
KLO1 041048Z 30001KT 22/12 A3002 RMK A01 T02220117  RH  051%=      5-min Rain = 0
KLO1 041049Z 30002KT 22/12 A3003 RMK A01 T02230118  RH  051%=      5-min Rain = 0
KLO1 041050Z 30001KT 22/12 A3002 RMK A01 T02240118  RH  051%=      5-min Rain = 0
KLO1 041051Z 31002KT 23/12 A3002 RMK A01 T02250119  RH  051%=      5-min Rain = 0
KLO1 041052Z 31002KT 23/12 A3002 RMK A01 T02260118  RH  050%=      5-min Rain = 0
KLO1 041053Z 30002KT 23/12 A3002 RMK A01 T02260118  RH  050%=      5-min Rain = 0
KLO1 041054Z 30002KT 23/12 A3002 RMK A01 T02260118  RH  050%=      5-min Rain = 0
KLO1 041055Z 30002KT 23/12 A3003 RMK A01 T02260118  RH  050%=      5-min Rain = 0
KLO1 041056Z 31002KT 23/12 A3003 RMK A01 T02260117  RH  050%=      5-min Rain = 0
KLO1 041057Z 30002KT 23/12 A3003 RMK A01 T02260117  RH  050%=      5-min Rain = 0
KLO1 041058Z 30003KT 22/12 A3003 RMK A01 T02240117  RH  051%=      5-min Rain = 0
KLO1 041059Z 30003KT 22/12 A3003 RMK A01 T02230117  RH  051%=      5-min Rain = 0
KLO1 041100Z 29003KT 22/12 A3003 RMK A01 T02220116  RH  051%=      5-min Rain = 0
KLO1 041101Z 30003KT 22/12 A3003 RMK A01 T02210116  RH  051%=      5-min Rain = 0
KLO1 041102Z 30003KT 22/12 A3003 RMK A01 T02200116  RH  052%=      5-min Rain = 0
KLO1 041103Z 30003KT 22/12 A3003 RMK A01 T02190116  RH  052%=      5-min Rain = 0
KLO1 041104Z 29002KT 22/12 A3003 RMK A01 T02180116  RH  052%=      5-min Rain = 0
KLO1 041105Z 29002KT 22/12 A3003 RMK A01 T02170117  RH  053%=      5-min Rain = 0
KLO1 041106Z 29002KT 22/12 A3003 RMK A01 T02170117  RH  053%=      5-min Rain = 0
KLO1 041107Z 29002KT 22/12 A3003 RMK A01 T02170118  RH  053%=      5-min Rain = 0
KLO1 041108Z 29002KT 22/12 A3003 RMK A01 T02160119  RH  054%=      5-min Rain = 0
KLO1 041109Z 31002KT 22/12 A3003 RMK A01 T02150120  RH  055%=      5-min Rain = 0
KLO1 041110Z 31002KT 22/12 A3003 RMK A01 T02150119  RH  054%=      5-min Rain = 0
KLO1 041111Z 31003KT 21/12 A3003 RMK A01 T02140119  RH  055%=      5-min Rain = 0
KLO1 041112Z 31002KT 21/12 A3003 RMK A01 T02140119  RH  054%=      5-min Rain = 0
KLO1 041113Z 31003KT 21/12 A3003 RMK A01 T02140117  RH  054%=      5-min Rain = 0
KLO1 041114Z 30003KT 22/12 A3003 RMK A01 T02150117  RH  054%=      5-min Rain = 0
KLO1 041115Z 31003KT 22/12 A3003 RMK A01 T02150118  RH  054%=      5-min Rain = 0
KLO1 041116Z 30003KT 22/12 A3003 RMK A01 T02150120  RH  055%=      5-min Rain = 0
KLO1 041117Z 30003KT 21/12 A3003 RMK A01 T02140120  RH  055%=      5-min Rain = 0
KLO1 041118Z 31003KT 21/12 A3003 RMK A01 T02130120  RH  055%=      5-min Rain = 0
KLO1 041119Z 31003KT 21/12 A3003 RMK A01 T02120120  RH  056%=      5-min Rain = 0
KLO1 041120Z 32002KT 21/12 A3003 RMK A01 T02110120  RH  056%=      5-min Rain = 0
KLO1 041121Z 33002KT 21/12 A3003 RMK A01 T02110120  RH  056%=      5-min Rain = 0
KLO1 041122Z 33003KT 21/12 A3003 RMK A01 T02110121  RH  056%=      5-min Rain = 0
KLO1 041123Z 33004KT 21/12 A3003 RMK A01 T02110120  RH  056%=      5-min Rain = 0
KLO1 041124Z 33004KT 21/12 A3003 RMK A01 T02110118  RH  055%=      5-min Rain = 0
KLO1 041125Z 33004KT 21/12 A3003 RMK A01 T02110118  RH  055%=      5-min Rain = 0
KLO1 041126Z 33003KT 21/12 A3003 RMK A01 T02100116  RH  055%=      5-min Rain = 0
KLO1 041127Z 34003KT 21/12 A3004 RMK A01 T02100116  RH  055%=      5-min Rain = 0
KLO1 041128Z 34003KT 21/12 A3004 RMK A01 T02100116  RH  055%=      5-min Rain = 0
KLO1 041129Z 34003KT 21/12 A3004 RMK A01 T02090116  RH  055%=      5-min Rain = 0
KLO1 041130Z 35003KT 21/12 A3003 RMK A01 T02090116  RH  055%=      5-min Rain = 0
KLO1 041131Z 35003KT 21/12 A3003 RMK A01 T02090116  RH  055%=      5-min Rain = 0
KLO1 041132Z 36003KT 21/12 A3003 RMK A01 T02090116  RH  055%=      5-min Rain = 0
KLO1 041133Z 01002KT 21/12 A3003 RMK A01 T02100117  RH  055%=      5-min Rain = 0
KLO1 041134Z 02002KT 21/12 A3004 RMK A01 T02110117  RH  055%=      5-min Rain = 0
KLO1 041135Z 02003KT 21/12 A3004 RMK A01 T02100116  RH  055%=      5-min Rain = 0
KLO1 041136Z 03004KT 21/12 A3004 RMK A01 T02100115  RH  054%=      5-min Rain = 0
KLO1 041137Z 03004KT 21/12 A3004 RMK A01 T02100116  RH  055%=      5-min Rain = 0
KLO1 041138Z 03004KT 21/12 A3004 RMK A01 T02090117  RH  056%=      5-min Rain = 0
KLO1 041139Z 03004KT 21/12 A3004 RMK A01 T02070116  RH  056%=      5-min Rain = 0
KLO1 041140Z 03005KT 21/12 A3004 RMK A01 T02070116  RH  056%=      5-min Rain = 0
KLO1 041141Z 03005KT 21/12 A3004 RMK A01 T02060117  RH  057%=      5-min Rain = 0
KLO1 041142Z 03004KT 21/12 A3004 RMK A01 T02060118  RH  057%=      5-min Rain = 0
KLO1 041143Z 02004KT 21/12 A3004 RMK A01 T02050117  RH  057%=      5-min Rain = 0
KLO1 041144Z 02005KT 21/12 A3004 RMK A01 T02050116  RH  057%=      5-min Rain = 0
KLO1 041145Z 02005KT 21/12 A3004 RMK A01 T02050117  RH  057%=      5-min Rain = 0
KLO1 041146Z 02005KT 21/12 A3004 RMK A01 T02050118  RH  057%=      5-min Rain = 0
KLO1 041147Z 02005KT 21/12 A3004 RMK A01 T02050120  RH  058%=      5-min Rain = 0
KLO1 041148Z 02005KT 21/12 A3004 RMK A01 T02050120  RH  058%=      5-min Rain = 0
KLO1 041149Z 02005KT 21/12 A3004 RMK A01 T02060120  RH  058%=      5-min Rain = 0
KLO1 041150Z 02005KT 21/12 A3004 RMK A01 T02060121  RH  058%=      5-min Rain = 0
KLO1 041151Z 01005KT 21/12 A3004 RMK A01 T02050122  RH  059%=      5-min Rain = 0
KLO1 041152Z 01005KT 20/12 A3004 RMK A01 T02040124  RH  060%=      5-min Rain = 0
KLO1 041153Z 01005KT 20/13 A3004 RMK A01 T02040126  RH  061%=      5-min Rain = 0
KLO1 041154Z 01005KT 20/13 A3004 RMK A01 T02040127  RH  061%=      5-min Rain = 0
KLO1 041155Z 01005KT 20/13 A3004 RMK A01 T02040127  RH  061%=      5-min Rain = 0
KLO1 041156Z 01005KT 21/13 A3004 RMK A01 T02050127  RH  061%=      5-min Rain = 0
KLO1 041157Z 01005KT 21/13 A3004 RMK A01 T02050128  RH  061%=      5-min Rain = 0
KLO1 041158Z 01006KT 21/13 A3004 RMK A01 T02060128  RH  061%=      5-min Rain = 0
KLO1 041159Z 02006KT 21/13 A3004 RMK A01 T02050127  RH  061%=      5-min Rain = 0
KLO1 041200Z 02006KT 21/13 A3004 RMK A01 T02060127  RH  061%=      5-min Rain = 0
KLO1 041201Z 02006KT 21/13 A3004 RMK A01 T02060126  RH  060%=      5-min Rain = 0
KLO1 041202Z 02006KT 21/13 A3005 RMK A01 T02060125  RH  060%=      5-min Rain = 0
KLO1 041203Z 02006KT 21/13 A3005 RMK A01 T02060125  RH  060%=      5-min Rain = 0
KLO1 041204Z 02006KT 21/12 A3005 RMK A01 T02060124  RH  059%=      5-min Rain = 0
KLO1 041205Z 02005KT 21/12 A3005 RMK A01 T02060123  RH  059%=      5-min Rain = 0
KLO1 041206Z 02005KT 21/12 A3005 RMK A01 T02060124  RH  059%=      5-min Rain = 0
KLO1 041207Z 02005KT 21/12 A3005 RMK A01 T02060123  RH  059%=      5-min Rain = 0
KLO1 041208Z 02005KT 21/12 A3005 RMK A01 T02060123  RH  059%=      5-min Rain = 0
KLO1 041209Z 02006KT 21/12 A3005 RMK A01 T02060123  RH  059%=      5-min Rain = 0
KLO1 041210Z 03006KT 21/12 A3005 RMK A01 T02060122  RH  059%=      5-min Rain = 0
KLO1 041211Z 03006KT 21/12 A3005 RMK A01 T02060122  RH  058%=      5-min Rain = 0
KLO1 041212Z 03005KT 21/12 A3005 RMK A01 T02060122  RH  058%=      5-min Rain = 0
KLO1 041213Z 03005KT 21/12 A3005 RMK A01 T02060122  RH  058%=      5-min Rain = 0
KLO1 041214Z 03005KT 21/12 A3005 RMK A01 T02070123  RH  058%=      5-min Rain = 0
KLO1 041215Z 03005KT 21/12 A3004 RMK A01 T02070123  RH  059%=      5-min Rain = 0
KLO1 041216Z 04005KT 21/12 A3004 RMK A01 T02070123  RH  058%=      5-min Rain = 0
KLO1 041217Z 04005KT 21/12 A3004 RMK A01 T02070121  RH  058%=      5-min Rain = 0
KLO1 041218Z 04005KT 21/12 A3005 RMK A01 T02070122  RH  058%=      5-min Rain = 0
KLO1 041219Z 04005KT 21/12 A3005 RMK A01 T02080122  RH  058%=      5-min Rain = 0
KLO1 041220Z 04005KT 21/12 A3005 RMK A01 T02080121  RH  057%=      5-min Rain = 0
KLO1 041221Z 04005KT 21/12 A3005 RMK A01 T02090121  RH  057%=      5-min Rain = 0
KLO1 041222Z 05004KT 21/12 A3005 RMK A01 T02090122  RH  057%=      5-min Rain = 0
KLO1 041223Z 05004KT 21/12 A3005 RMK A01 T02100122  RH  057%=      5-min Rain = 0
KLO1 041224Z 05004KT 21/12 A3005 RMK A01 T02100122  RH  057%=      5-min Rain = 0
KLO1 041225Z 05004KT 21/12 A3004 RMK A01 T02110122  RH  057%=      5-min Rain = 0
KLO1 041226Z 05004KT 21/12 A3004 RMK A01 T02110122  RH  057%=      5-min Rain = 0
KLO1 041227Z 06004KT 21/12 A3004 RMK A01 T02120123  RH  057%=      5-min Rain = 0
KLO1 041228Z 06003KT 21/12 A3004 RMK A01 T02140122  RH  056%=      5-min Rain = 0
KLO1 041229Z 06003KT 22/12 A3004 RMK A01 T02150123  RH  056%=      5-min Rain = 0
KLO1 041230Z 06003KT 22/12 A3004 RMK A01 T02170124  RH  055%=      5-min Rain = 0
KLO1 041231Z 06003KT 22/13 A3004 RMK A01 T02180126  RH  056%=      5-min Rain = 0
KLO1 041232Z 06003KT 22/13 A3004 RMK A01 T02190127  RH  056%=      5-min Rain = 0
KLO1 041233Z 06002KT 22/13 A3004 RMK A01 T02200127  RH  055%=      5-min Rain = 0
KLO1 041234Z 07002KT 22/13 A3004 RMK A01 T02220128  RH  055%=      5-min Rain = 0
KLO1 041235Z 07002KT 22/13 A3004 RMK A01 T02230129  RH  055%=      5-min Rain = 0
KLO1 041236Z 08002KT 23/13 A3004 RMK A01 T02250128  RH  054%=      5-min Rain = 0
KLO1 041237Z 08002KT 23/13 A3004 RMK A01 T02260128  RH  054%=      5-min Rain = 0
KLO1 041238Z 09002KT 23/13 A3004 RMK A01 T02270128  RH  053%=      5-min Rain = 0
KLO1 041239Z 11001KT 23/13 A3004 RMK A01 T02280128  RH  053%=      5-min Rain = 0
KLO1 041240Z 10001KT 23/13 A3004 RMK A01 T02290129  RH  053%=      5-min Rain = 0
KLO1 041241Z 11001KT 23/13 A3004 RMK A01 T02300130  RH  053%=      5-min Rain = 0
KLO1 041242Z 11001KT 23/13 A3004 RMK A01 T02310130  RH  053%=      5-min Rain = 0
KLO1 041243Z 10001KT 23/13 A3004 RMK A01 T02320129  RH  053%=      5-min Rain = 0
KLO1 041244Z 11001KT 23/13 A3004 RMK A01 T02320130  RH  052%=      5-min Rain = 0
KLO1 041245Z 10002KT 23/13 A3004 RMK A01 T02330130  RH  052%=      5-min Rain = 0
KLO1 041246Z 10002KT 23/13 A3004 RMK A01 T02330130  RH  052%=      5-min Rain = 0
KLO1 041247Z 11003KT 23/13 A3004 RMK A01 T02330130  RH  052%=      5-min Rain = 0
KLO1 041248Z 11003KT 23/13 A3004 RMK A01 T02330130  RH  052%=      5-min Rain = 0
KLO1 041249Z 11003KT 23/13 A3004 RMK A01 T02330131  RH  052%=      5-min Rain = 0
KLO1 041250Z 11003KT 23/13 A3004 RMK A01 T02330131  RH  053%=      5-min Rain = 0
KLO1 041251Z 11003KT 23/13 A3004 RMK A01 T02340133  RH  053%=      5-min Rain = 0
KLO1 041252Z 11004KT 24/13 A3004 RMK A01 T02350134  RH  053%=      5-min Rain = 0
KLO1 041253Z 10003KT 24/14 A3004 RMK A01 T02350135  RH  053%=      5-min Rain = 0
KLO1 041254Z 10003KT 24/14 A3004 RMK A01 T02360135  RH  053%=      5-min Rain = 0
KLO1 041255Z 09003KT 24/14 A3004 RMK A01 T02360135  RH  053%=      5-min Rain = 0
KLO1 041256Z 09004KT 24/13 A3004 RMK A01 T02370134  RH  052%=      5-min Rain = 0
KLO1 041257Z 09002KT 24/13 A3004 RMK A01 T02370133  RH  052%=      5-min Rain = 0
KLO1 041258Z 11002KT 24/13 A3004 RMK A01 T02380134  RH  052%=      5-min Rain = 0
KLO1 041259Z 10002KT 24/14 A3004 RMK A01 T02390135  RH  052%=      5-min Rain = 0
KLO1 041300Z 09002KT 24/13 A3004 RMK A01 T02400134  RH  051%=      5-min Rain = 0
KLO1 041301Z 07001KT 24/13 A3004 RMK A01 T02410134  RH  051%=      5-min Rain = 0
KLO1 041302Z 05001KT 24/14 A3004 RMK A01 T02420136  RH  052%=      5-min Rain = 0
KLO1 041303Z 06001KT 24/14 A3004 RMK A01 T02430137  RH  052%=      5-min Rain = 0
KLO1 041304Z 06000KT 25/14 A3004 RMK A01 T02450139  RH  051%=      5-min Rain = 0
KLO1 041305Z 03000KT 25/14 A3004 RMK A01 T02480139  RH  051%=      5-min Rain = 0
KLO1 041306Z 04001KT 25/14 A3004 RMK A01 T02490137  RH  050%=      5-min Rain = 0
KLO1 041307Z 02000KT 25/14 A3004 RMK A01 T02500136  RH  049%=      5-min Rain = 0
KLO1 041308Z 06000KT 25/14 A3004 RMK A01 T02520137  RH  049%=      5-min Rain = 0
KLO1 041309Z 00000KT 25/14 A3004 RMK A01 T02520139  RH  049%=      5-min Rain = 0
KLO1 041310Z 00000KT 25/14 A3004 RMK A01 T02530139  RH  049%=      5-min Rain = 0
KLO1 041311Z 00000KT 25/14 A3004 RMK A01 T02540139  RH  049%=      5-min Rain = 0
KLO1 041312Z 00000KT 26/14 A3004 RMK A01 T02550139  RH  049%=      5-min Rain = 0
KLO1 041313Z 06001KT 26/14 A3004 RMK A01 T02560140  RH  049%=      5-min Rain = 0
KLO1 041314Z 06000KT 26/14 A3004 RMK A01 T02560140  RH  049%=      5-min Rain = 0
KLO1 041315Z 04001KT 26/14 A3004 RMK A01 T02570142  RH  049%=      5-min Rain = 0
KLO1 041316Z 03001KT 26/14 A3004 RMK A01 T02580142  RH  049%=      5-min Rain = 0
KLO1 041317Z 03001KT 26/14 A3004 RMK A01 T02580142  RH  049%=      5-min Rain = 0
KLO1 041318Z 03001KT 26/14 A3005 RMK A01 T02590140  RH  048%=      5-min Rain = 0
KLO1 041319Z 03000KT 26/14 A3005 RMK A01 T02590140  RH  048%=      5-min Rain = 0
KLO1 041320Z 02000KT 26/14 A3005 RMK A01 T02590140  RH  048%=      5-min Rain = 0
KLO1 041321Z 00000KT 26/14 A3005 RMK A01 T02590140  RH  048%=      5-min Rain = 0
KLO1 041322Z 00001KT 26/14 A3005 RMK A01 T02590141  RH  048%=      5-min Rain = 0
KLO1 041323Z 01001KT 26/14 A3005 RMK A01 T02590140  RH  048%=      5-min Rain = 0
KLO1 041324Z 02000KT 26/14 A3005 RMK A01 T02590140  RH  048%=      5-min Rain = 0
KLO1 041325Z 01001KT 26/14 A3005 RMK A01 T02600140  RH  048%=      5-min Rain = 0
KLO1 041326Z 00001KT 26/14 A3005 RMK A01 T02610141  RH  048%=      5-min Rain = 0
KLO1 041327Z 00000KT 26/14 A3005 RMK A01 T02610141  RH  048%=      5-min Rain = 0
KLO1 041328Z 36000KT 26/14 A3005 RMK A01 T02610141  RH  047%=      5-min Rain = 0
KLO1 041329Z 32001KT 26/14 A3005 RMK A01 T02620141  RH  047%=      5-min Rain = 0
KLO1 041330Z 28001KT 26/14 A3005 RMK A01 T02630141  RH  047%=      5-min Rain = 0
KLO1 041331Z 00000KT 26/14 A3005 RMK A01 T02630141  RH  047%=      5-min Rain = 0
KLO1 041332Z 00000KT 26/14 A3005 RMK A01 T02630141  RH  047%=      5-min Rain = 0
KLO1 041333Z 00000KT 26/14 A3005 RMK A01 T02640141  RH  047%=      5-min Rain = 0
KLO1 041334Z 00000KT 27/14 A3005 RMK A01 T02650141  RH  046%=      5-min Rain = 0
KLO1 041335Z 33000KT 27/14 A3005 RMK A01 T02650141  RH  046%=      5-min Rain = 0
KLO1 041336Z 33001KT 27/14 A3005 RMK A01 T02680143  RH  046%=      5-min Rain = 0
KLO1 041337Z 32001KT 27/14 A3005 RMK A01 T02680142  RH  046%=      5-min Rain = 0
KLO1 041338Z 30001KT 27/14 A3005 RMK A01 T02680141  RH  046%=      5-min Rain = 0
KLO1 041339Z 32001KT 27/14 A3005 RMK A01 T02680141  RH  046%=      5-min Rain = 0
KLO1 041340Z 34001KT 27/14 A3005 RMK A01 T02680143  RH  046%=      5-min Rain = 0
KLO1 041341Z 32000KT 27/15 A3005 RMK A01 T02680145  RH  047%=      5-min Rain = 0
KLO1 041342Z 27000KT 27/14 A3005 RMK A01 T02680144  RH  046%=      5-min Rain = 0
KLO1 041343Z 26001KT 27/14 A3005 RMK A01 T02680144  RH  046%=      5-min Rain = 0
KLO1 041344Z 23002KT 27/14 A3005 RMK A01 T02680143  RH  046%=      5-min Rain = 0
KLO1 041345Z 21002KT 27/14 A3005 RMK A01 T02680142  RH  046%=      5-min Rain = 0
KLO1 041346Z 23002KT 27/14 A3005 RMK A01 T02670142  RH  046%=      5-min Rain = 0
KLO1 041347Z 21003KT 27/14 A3004 RMK A01 T02670144  RH  047%=      5-min Rain = 0
KLO1 041348Z 22002KT 27/14 A3004 RMK A01 T02670144  RH  047%=      5-min Rain = 0
KLO1 041349Z 26002KT 27/14 A3004 RMK A01 T02670144  RH  047%=      5-min Rain = 0
KLO1 041350Z 25003KT 27/14 A3004 RMK A01 T02670144  RH  047%=      5-min Rain = 0
KLO1 041351Z 24002KT 27/14 A3004 RMK A01 T02670144  RH  047%=      5-min Rain = 0
KLO1 041352Z 24002KT 27/14 A3004 RMK A01 T02670143  RH  047%=      5-min Rain = 0
KLO1 041353Z 21001KT 27/14 A3004 RMK A01 T02660144  RH  047%=      5-min Rain = 0
KLO1 041354Z 23001KT 27/15 A3004 RMK A01 T02670145  RH  047%=      5-min Rain = 0
KLO1 041355Z 23000KT 27/15 A3004 RMK A01 T02690145  RH  047%=      5-min Rain = 0
KLO1 041356Z 24002KT 27/15 A3004 RMK A01 T02700145  RH  046%=      5-min Rain = 0
KLO1 041357Z 24002KT 27/15 A3004 RMK A01 T02700145  RH  046%=      5-min Rain = 0
KLO1 041358Z 21002KT 27/15 A3004 RMK A01 T02700147  RH  047%=      5-min Rain = 0
KLO1 041359Z 21002KT 27/15 A3005 RMK A01 T02710146  RH  046%=      5-min Rain = 0
KLO1 041400Z 19001KT 27/15 A3005 RMK A01 T02710146  RH  046%=      5-min Rain = 0
KLO1 041401Z 18001KT 27/15 A3005 RMK A01 T02710146  RH  046%=      5-min Rain = 0
KLO1 041402Z 18002KT 27/15 A3005 RMK A01 T02710146  RH  046%=      5-min Rain = 0
KLO1 041403Z 20003KT 27/15 A3005 RMK A01 T02720147  RH  046%=      5-min Rain = 0
KLO1 041404Z 20001KT 27/15 A3005 RMK A01 T02720148  RH  046%=      5-min Rain = 0
KLO1 041405Z 21002KT 27/15 A3005 RMK A01 T02740149  RH  047%=      5-min Rain = 0
KLO1 041406Z 22001KT 27/15 A3005 RMK A01 T02740149  RH  046%=      5-min Rain = 0
KLO1 041407Z 15002KT 28/15 A3005 RMK A01 T02750150  RH  046%=      5-min Rain = 0
KLO1 041408Z 16002KT 28/15 A3005 RMK A01 T02770150  RH  046%=      5-min Rain = 0
KLO1 041409Z 16002KT 28/15 A3005 RMK A01 T02770150  RH  046%=      5-min Rain = 0
KLO1 041410Z 13001KT 28/15 A3005 RMK A01 T02780151  RH  046%=      5-min Rain = 0
KLO1 041411Z 15002KT 28/15 A3005 RMK A01 T02800151  RH  045%=      5-min Rain = 0
KLO1 041412Z 15002KT 28/15 A3005 RMK A01 T02800152  RH  045%=      5-min Rain = 0
KLO1 041413Z 18002KT 28/15 A3005 RMK A01 T02810152  RH  045%=      5-min Rain = 0
KLO1 041414Z 20002KT 28/15 A3005 RMK A01 T02800151  RH  045%=      5-min Rain = 0
KLO1 041415Z 19001KT 28/15 A3005 RMK A01 T02800152  RH  046%=      5-min Rain = 0
KLO1 041416Z 19002KT 28/15 A3005 RMK A01 T02800153  RH  046%=      5-min Rain = 0
KLO1 041417Z 18005KT 28/16 A3004 RMK A01 T02820156  RH  046%=      5-min Rain = 0
KLO1 041418Z 18005KT 28/16 A3004 RMK A01 T02840158  RH  046%=      5-min Rain = 0
KLO1 041419Z 19004KT 29/16 A3004 RMK A01 T02850157  RH  046%=      5-min Rain = 0
KLO1 041420Z 22004KT 29/16 A3004 RMK A01 T02850157  RH  046%=      5-min Rain = 0
KLO1 041421Z 21005KT 28/16 A3004 RMK A01 T02840157  RH  046%=      5-min Rain = 0
KLO1 041422Z 23004KT 28/16 A3004 RMK A01 T02840157  RH  046%=      5-min Rain = 0
KLO1 041423Z 19005KT 28/16 A3004 RMK A01 T02840157  RH  046%=      5-min Rain = 0
KLO1 041424Z 19006KT 29/16 A3004 RMK A01 T02850157  RH  046%=      5-min Rain = 0
KLO1 041425Z 19004KT 29/16 A3004 RMK A01 T02860157  RH  046%=      5-min Rain = 0
KLO1 041426Z 21004KT 29/16 A3004 RMK A01 T02860156  RH  045%=      5-min Rain = 0
KLO1 041427Z 21005KT 29/16 A3004 RMK A01 T02860158  RH  046%=      5-min Rain = 0
KLO1 041428Z 20006KT 29/16 A3004 RMK A01 T02870157  RH  045%=      5-min Rain = 0
KLO1 041429Z 20005KT 29/16 A3004 RMK A01 T02870156  RH  045%=      5-min Rain = 0
KLO1 041430Z 20007KT 29/16 A3004 RMK A01 T02870157  RH  045%=      5-min Rain = 0
KLO1 041431Z 20005KT 29/16 A3004 RMK A01 T02870156  RH  045%=      5-min Rain = 0
KLO1 041432Z 21006KT 29/16 A3004 RMK A01 T02870157  RH  045%=      5-min Rain = 0
KLO1 041433Z 20005KT 29/16 A3005 RMK A01 T02890159  RH  045%=      5-min Rain = 0
KLO1 041434Z 20005KT 29/16 A3005 RMK A01 T02900158  RH  045%=      5-min Rain = 0
KLO1 041435Z 20006KT 29/16 A3005 RMK A01 T02900158  RH  045%=      5-min Rain = 0
KLO1 041436Z 21006KT 29/16 A3005 RMK A01 T02900158  RH  045%=      5-min Rain = 0
KLO1 041437Z 20005KT 29/16 A3005 RMK A01 T02910158  RH  045%=      5-min Rain = 0
KLO1 041438Z 19004KT 29/16 A3005 RMK A01 T02910157  RH  044%=      5-min Rain = 0
KLO1 041439Z 20004KT 29/16 A3005 RMK A01 T02910158  RH  044%=      5-min Rain = 0
KLO1 041440Z 21004KT 29/16 A3005 RMK A01 T02900158  RH  045%=      5-min Rain = 0
KLO1 041441Z 20004KT 29/16 A3005 RMK A01 T02900158  RH  045%=      5-min Rain = 0
KLO1 041442Z 24006KT 29/16 A3005 RMK A01 T02910159  RH  045%=      5-min Rain = 0
KLO1 041443Z 22005KT 29/16 A3005 RMK A01 T02930157  RH  044%=      5-min Rain = 0
KLO1 041444Z 18004KT 29/16 A3005 RMK A01 T02930158  RH  044%=      5-min Rain = 0
KLO1 041445Z 19004KT 29/16 A3005 RMK A01 T02930158  RH  044%=      5-min Rain = 0
KLO1 041446Z 23006KT 29/16 A3005 RMK A01 T02930158  RH  044%=      5-min Rain = 0
KLO1 041447Z 22005KT 29/16 A3005 RMK A01 T02940157  RH  043%=      5-min Rain = 0
KLO1 041448Z 22005KT 29/16 A3005 RMK A01 T02940157  RH  044%=      5-min Rain = 0
KLO1 041449Z 23006KT 29/16 A3005 RMK A01 T02930156  RH  043%=      5-min Rain = 0
KLO1 041450Z 26006KT 29/16 A3005 RMK A01 T02930156  RH  043%=      5-min Rain = 0
KLO1 041451Z 27005KT 29/16 A3005 RMK A01 T02940157  RH  044%=      5-min Rain = 0
KLO1 041452Z 26004KT 29/16 A3005 RMK A01 T02940158  RH  044%=      5-min Rain = 0
KLO1 041453Z 28004KT 30/16 A3005 RMK A01 T02960161  RH  044%=      5-min Rain = 0
KLO1 041454Z 28004KT 30/16 A3005 RMK A01 T02980158  RH  043%=      5-min Rain = 0
KLO1 041455Z 27003KT 30/16 A3005 RMK A01 T02980159  RH  043%=      5-min Rain = 0
KLO1 041456Z 26004KT 30/16 A3005 RMK A01 T02970158  RH  043%=      5-min Rain = 0
KLO1 041457Z 25004KT 30/16 A3005 RMK A01 T02970157  RH  043%=      5-min Rain = 0
KLO1 041458Z 26003KT 30/16 A3005 RMK A01 T02970157  RH  043%=      5-min Rain = 0
KLO1 041459Z 28004KT 30/16 A3005 RMK A01 T02980157  RH  042%=      5-min Rain = 0
KLO1 041500Z 30002KT 30/16 A3005 RMK A01 T02970159  RH  043%=      5-min Rain = 0
KLO1 041501Z 29002KT 30/16 A3005 RMK A01 T02980158  RH  043%=      5-min Rain = 0
KLO1 041502Z 33001KT 30/16 A3005 RMK A01 T02980157  RH  043%=      5-min Rain = 0
KLO1 041503Z 26001KT 30/16 A3005 RMK A01 T02980157  RH  042%=      5-min Rain = 0
KLO1 041504Z 30001KT 30/16 A3005 RMK A01 T02980157  RH  043%=      5-min Rain = 0
KLO1 041505Z 28002KT 30/16 A3005 RMK A01 T02990158  RH  042%=      5-min Rain = 0
KLO1 041506Z 29002KT 30/16 A3005 RMK A01 T03000158  RH  042%=      5-min Rain = 0
KLO1 041507Z 27004KT 30/16 A3005 RMK A01 T03000158  RH  042%=      5-min Rain = 0
KLO1 041508Z 27007KT 30/16 A3005 RMK A01 T03010157  RH  042%=      5-min Rain = 0
KLO1 041509Z 27006KT 30/16 A3005 RMK A01 T03020156  RH  041%=      5-min Rain = 0
KLO1 041510Z 28005KT 30/16 A3005 RMK A01 T03020156  RH  041%=      5-min Rain = 0
KLO1 041511Z 29005KT 30/16 A3005 RMK A01 T03020157  RH  041%=      5-min Rain = 0
KLO1 041512Z 29003KT 30/16 A3005 RMK A01 T03020157  RH  041%=      5-min Rain = 0
KLO1 041513Z 27005KT 30/16 A3005 RMK A01 T03020156  RH  041%=      5-min Rain = 0
KLO1 041514Z 29003KT 30/16 A3005 RMK A01 T03010156  RH  041%=      5-min Rain = 0
KLO1 041515Z 29006KT 30/16 A3005 RMK A01 T03020158  RH  042%=      5-min Rain = 0
KLO1 041516Z 28005KT 30/16 A3005 RMK A01 T03030158  RH  042%=      5-min Rain = 0
KLO1 041517Z 29005KT 30/16 A3005 RMK A01 T03030157  RH  041%=      5-min Rain = 0
KLO1 041518Z 28005KT 30/16 A3005 RMK A01 T03030157  RH  041%=      5-min Rain = 0
KLO1 041519Z 25005KT 30/16 A3005 RMK A01 T03020155  RH  041%=      5-min Rain = 0
KLO1 041520Z 25005KT 30/16 A3005 RMK A01 T03030155  RH  041%=      5-min Rain = 0
KLO1 041521Z 25006KT 30/16 A3005 RMK A01 T03040157  RH  041%=      5-min Rain = 0
KLO1 041522Z 25006KT 31/16 A3005 RMK A01 T03050157  RH  041%=      5-min Rain = 0
KLO1 041523Z 27005KT 31/16 A3005 RMK A01 T03060157  RH  041%=      5-min Rain = 0
KLO1 041524Z 29004KT 31/16 A3005 RMK A01 T03060159  RH  041%=      5-min Rain = 0
KLO1 041525Z 30004KT 31/16 A3005 RMK A01 T03070161  RH  041%=      5-min Rain = 0
KLO1 041526Z 32004KT 31/16 A3005 RMK A01 T03080158  RH  040%=      5-min Rain = 0
KLO1 041527Z 34003KT 31/16 A3005 RMK A01 T03080159  RH  041%=      5-min Rain = 0
KLO1 041528Z 35003KT 31/16 A3005 RMK A01 T03080156  RH  040%=      5-min Rain = 0
KLO1 041529Z 34002KT 31/16 A3005 RMK A01 T03080156  RH  040%=      5-min Rain = 0
KLO1 041530Z 28005KT 31/16 A3005 RMK A01 T03070159  RH  041%=      5-min Rain = 0
KLO1 041531Z 29004KT 31/16 A3005 RMK A01 T03080156  RH  040%=      5-min Rain = 0
KLO1 041532Z 28005KT 31/16 A3005 RMK A01 T03080156  RH  040%=      5-min Rain = 0
KLO1 041533Z 28004KT 31/15 A3005 RMK A01 T03070154  RH  039%=      5-min Rain = 0
KLO1 041534Z 27005KT 31/15 A3005 RMK A01 T03070154  RH  040%=      5-min Rain = 0
KLO1 041535Z 27006KT 31/15 A3005 RMK A01 T03070154  RH  040%=      5-min Rain = 0
KLO1 041536Z 28002KT 31/15 A3005 RMK A01 T03070154  RH  040%=      5-min Rain = 0
KLO1 041537Z 27004KT 31/15 A3005 RMK A01 T03080154  RH  039%=      5-min Rain = 0
KLO1 041538Z 27007KT 31/15 A3005 RMK A01 T03100154  RH  039%=      5-min Rain = 0
KLO1 041539Z 28007KT 31/15 A3005 RMK A01 T03110154  RH  039%=      5-min Rain = 0
KLO1 041540Z 30008KT 31/16 A3005 RMK A01 T03110156  RH  039%=      5-min Rain = 0
KLO1 041541Z 30007KT 31/16 A3006 RMK A01 T03110156  RH  039%=      5-min Rain = 0
KLO1 041542Z 30007KT 31/16 A3006 RMK A01 T03110155  RH  039%=      5-min Rain = 0
KLO1 041543Z 31005KT 31/15 A3006 RMK A01 T03110154  RH  039%=      5-min Rain = 0
KLO1 041544Z 27006KT 31/15 A3006 RMK A01 T03120153  RH  038%=      5-min Rain = 0
KLO1 041545Z 30005KT 31/15 A3006 RMK A01 T03130153  RH  038%=      5-min Rain = 0
KLO1 041546Z 30009KT 31/15 A3006 RMK A01 T03140154  RH  038%=      5-min Rain = 0
KLO1 041547Z 31006KT 31/15 A3006 RMK A01 T03130151  RH  037%=      5-min Rain = 0
KLO1 041548Z 30004KT 31/15 A3006 RMK A01 T03120150  RH  037%=      5-min Rain = 0
KLO1 041549Z 30004KT 31/15 A3006 RMK A01 T03120150  RH  038%=      5-min Rain = 0
KLO1 041550Z 32006KT 31/16 A3006 RMK A01 T03120156  RH  039%=      5-min Rain = 0
KLO1 041551Z 32003KT 31/15 A3006 RMK A01 T03140154  RH  038%=      5-min Rain = 0
KLO1 041552Z 29004KT 31/16 A3005 RMK A01 T03140156  RH  039%=      5-min Rain = 0
KLO1 041553Z 31006KT 31/16 A3005 RMK A01 T03140158  RH  039%=      5-min Rain = 0
KLO1 041554Z 32008KT 32/16 A3005 RMK A01 T03170157  RH  038%=      5-min Rain = 0
KLO1 041555Z 33009KT 32/16 A3005 RMK A01 T03180156  RH  038%=      5-min Rain = 0
KLO1 041556Z 32008KT 32/15 A3005 RMK A01 T03160154  RH  038%=      5-min Rain = 0
KLO1 041557Z 32008KT 31/16 A3005 RMK A01 T03140155  RH  038%=      5-min Rain = 0
KLO1 041558Z 32007KT 32/16 A3005 RMK A01 T03150157  RH  039%=      5-min Rain = 0
KLO1 041559Z 31008KT 32/16 A3005 RMK A01 T03170156  RH  038%=      5-min Rain = 0
KLO1 041600Z 31007KT 32/16 A3005 RMK A01 T03170156  RH  038%=      5-min Rain = 0
KLO1 041601Z 32008KT 32/15 A3005 RMK A01 T03180153  RH  037%=      5-min Rain = 0
KLO1 041602Z 31007KT 32/15 A3005 RMK A01 T03170154  RH  037%=      5-min Rain = 0
KLO1 041603Z 29005KT 32/16 A3005 RMK A01 T03170156  RH  038%=      5-min Rain = 0
KLO1 041604Z 28007KT 32/15 A3005 RMK A01 T03180154  RH  037%=      5-min Rain = 0
KLO1 041605Z 28006KT 32/15 A3005 RMK A01 T03180152  RH  037%=      5-min Rain = 0
KLO1 041606Z 28005KT 32/15 A3005 RMK A01 T03150152  RH  037%=      5-min Rain = 0
KLO1 041607Z 29002KT 32/15 A3005 RMK A01 T03150150  RH  037%=      5-min Rain = 0
KLO1 041608Z 27003KT 31/15 A3005 RMK A01 T03140151  RH  037%=      5-min Rain = 0
KLO1 041609Z 28007KT 32/15 A3005 RMK A01 T03160151  RH  037%=      5-min Rain = 0
KLO1 041610Z 30006KT 32/15 A3005 RMK A01 T03170151  RH  037%=      5-min Rain = 0
KLO1 041611Z 30005KT 32/15 A3005 RMK A01 T03170150  RH  037%=      5-min Rain = 0
KLO1 041612Z 29004KT 32/15 A3005 RMK A01 T03170149  RH  036%=      5-min Rain = 0
KLO1 041613Z 27004KT 32/15 A3005 RMK A01 T03150148  RH  036%=      5-min Rain = 0
KLO1 041614Z 26005KT 32/15 A3005 RMK A01 T03150150  RH  037%=      5-min Rain = 0
KLO1 041615Z 28003KT 32/15 A3005 RMK A01 T03160148  RH  036%=      5-min Rain = 0
KLO1 041616Z 30005KT 32/15 A3005 RMK A01 T03170152  RH  037%=      5-min Rain = 0
KLO1 041617Z 30005KT 32/15 A3005 RMK A01 T03190150  RH  036%=      5-min Rain = 0
KLO1 041618Z 30004KT 32/15 A3005 RMK A01 T03200145  RH  035%=      5-min Rain = 0
KLO1 041619Z 28002KT 32/15 A3005 RMK A01 T03200145  RH  035%=      5-min Rain = 0
KLO1 041620Z 30003KT 32/15 A3005 RMK A01 T03200146  RH  035%=      5-min Rain = 0
KLO1 041621Z 29002KT 32/15 A3005 RMK A01 T03210146  RH  035%=      5-min Rain = 0
KLO1 041622Z 26001KT 32/15 A3005 RMK A01 T03210147  RH  035%=      5-min Rain = 0
KLO1 041623Z 20002KT 32/15 A3005 RMK A01 T03230147  RH  035%=      5-min Rain = 0
KLO1 041624Z 02001KT 32/15 A3005 RMK A01 T03230146  RH  034%=      5-min Rain = 0
KLO1 041625Z 36002KT 32/15 A3005 RMK A01 T03240149  RH  035%=      5-min Rain = 0
KLO1 041626Z 30005KT 33/15 A3005 RMK A01 T03260148  RH  034%=      5-min Rain = 0
KLO1 041627Z 29004KT 33/15 A3005 RMK A01 T03270147  RH  034%=      5-min Rain = 0
KLO1 041628Z 29004KT 33/15 A3005 RMK A01 T03270146  RH  034%=      5-min Rain = 0
KLO1 041629Z 30004KT 33/15 A3005 RMK A01 T03260149  RH  034%=      5-min Rain = 0
KLO1 041630Z 29006KT 33/15 A3005 RMK A01 T03270147  RH  034%=      5-min Rain = 0
KLO1 041631Z 28005KT 33/14 A3005 RMK A01 T03260143  RH  033%=      5-min Rain = 0
KLO1 041632Z 25003KT 32/14 A3005 RMK A01 T03240142  RH  033%=      5-min Rain = 0
KLO1 041633Z 24002KT 32/14 A3005 RMK A01 T03240141  RH  033%=      5-min Rain = 0
KLO1 041634Z 22001KT 32/14 A3005 RMK A01 T03230141  RH  033%=      5-min Rain = 0
KLO1 041635Z 21001KT 32/14 A3005 RMK A01 T03240142  RH  033%=      5-min Rain = 0
KLO1 041636Z 15001KT 33/14 A3005 RMK A01 T03250142  RH  033%=      5-min Rain = 0
KLO1 041637Z 13001KT 33/14 A3005 RMK A01 T03270141  RH  032%=      5-min Rain = 0
KLO1 041638Z 06000KT 33/14 A3005 RMK A01 T03290142  RH  032%=      5-min Rain = 0
KLO1 041639Z 04000KT 33/14 A3005 RMK A01 T03320142  RH  032%=      5-min Rain = 0
KLO1 041640Z 19001KT 34/14 A3005 RMK A01 T03350144  RH  032%=      5-min Rain = 0
KLO1 041641Z 34004KT 34/14 A3005 RMK A01 T03370144  RH  031%=      5-min Rain = 0
KLO1 041642Z 33005KT 34/15 A3005 RMK A01 T03360145  RH  032%=      5-min Rain = 0
KLO1 041643Z 32006KT 34/14 A3005 RMK A01 T03350143  RH  032%=      5-min Rain = 0
KLO1 041644Z 32005KT 34/14 A3005 RMK A01 T03350142  RH  031%=      5-min Rain = 0
KLO1 041645Z 33003KT 33/14 A3005 RMK A01 T03340139  RH  031%=      5-min Rain = 0
KLO1 041646Z 00002KT 33/14 A3005 RMK A01 T03310138  RH  031%=      5-min Rain = 0
KLO1 041647Z 33004KT 33/14 A3005 RMK A01 T03300142  RH  032%=      5-min Rain = 0
KLO1 041648Z 31003KT 33/14 A3005 RMK A01 T03310143  RH  032%=      5-min Rain = 0
KLO1 041649Z 29002KT 33/14 A3005 RMK A01 T03310140  RH  031%=      5-min Rain = 0
KLO1 041650Z 29002KT 33/14 A3005 RMK A01 T03310139  RH  031%=      5-min Rain = 0
KLO1 041651Z 33002KT 33/14 A3005 RMK A01 T03300140  RH  032%=      5-min Rain = 0
KLO1 041652Z 32002KT 33/14 A3005 RMK A01 T03310141  RH  032%=      5-min Rain = 0
KLO1 041653Z 04002KT 33/14 A3005 RMK A01 T03340142  RH  031%=      5-min Rain = 0
KLO1 041654Z 01004KT 34/14 A3005 RMK A01 T03360140  RH  031%=      5-min Rain = 0
KLO1 041655Z 35004KT 34/14 A3005 RMK A01 T03370138  RH  030%=      5-min Rain = 0
KLO1 041656Z 33003KT 34/14 A3005 RMK A01 T03380136  RH  030%=      5-min Rain = 0
KLO1 041657Z 29005KT 34/14 A3005 RMK A01 T03380142  RH  031%=      5-min Rain = 0
KLO1 041658Z 28005KT 34/14 A3005 RMK A01 T03390142  RH  031%=      5-min Rain = 0
KLO1 041659Z 29004KT 34/14 A3005 RMK A01 T03370138  RH  030%=      5-min Rain = 0
KLO1 041700Z 32004KT 34/14 A3005 RMK A01 T03350142  RH  031%=      5-min Rain = 0
KLO1 041701Z 33003KT 34/14 A3005 RMK A01 T03380141  RH  030%=      5-min Rain = 0
KLO1 041702Z 29004KT 34/14 A3005 RMK A01 T03410140  RH  030%=      5-min Rain = 0
KLO1 041703Z 26002KT 34/14 A3005 RMK A01 T03400137  RH  029%=      5-min Rain = 0
KLO1 041704Z 28003KT 34/14 A3005 RMK A01 T03390138  RH  030%=      5-min Rain = 0
KLO1 041705Z 26004KT 34/14 A3005 RMK A01 T03400135  RH  029%=      5-min Rain = 0
KLO1 041706Z 24003KT 34/13 A3005 RMK A01 T03400127  RH  028%=      5-min Rain = 0
KLO1 041707Z 23002KT 34/13 A3005 RMK A01 T03400126  RH  027%=      5-min Rain = 0
KLO1 041708Z 23003KT 34/13 A3005 RMK A01 T03400129  RH  028%=      5-min Rain = 0
KLO1 041709Z 24004KT 34/13 A3005 RMK A01 T03410132  RH  028%=      5-min Rain = 0
KLO1 041710Z 22003KT 34/14 A3005 RMK A01 T03410135  RH  029%=      5-min Rain = 0
KLO1 041711Z 22002KT 34/14 A3005 RMK A01 T03410137  RH  029%=      5-min Rain = 0
KLO1 041712Z 28004KT 34/14 A3005 RMK A01 T03420136  RH  029%=      5-min Rain = 0
KLO1 041713Z 30006KT 34/13 A3005 RMK A01 T03420132  RH  028%=      5-min Rain = 0
KLO1 041714Z 29003KT 34/13 A3005 RMK A01 T03420129  RH  028%=      5-min Rain = 0
KLO1 041715Z 31003KT 34/13 A3005 RMK A01 T03410127  RH  027%=      5-min Rain = 0
KLO1 041716Z 31002KT 34/13 A3005 RMK A01 T03400128  RH  028%=      5-min Rain = 0
KLO1 041717Z 29001KT 34/13 A3005 RMK A01 T03400127  RH  028%=      5-min Rain = 0
KLO1 041718Z 23000KT 34/13 A3005 RMK A01 T03400125  RH  027%=      5-min Rain = 0
KLO1 041719Z 23000KT 34/13 A3005 RMK A01 T03410128  RH  028%=      5-min Rain = 0
KLO1 041720Z 26000KT 34/13 A3005 RMK A01 T03430131  RH  028%=      5-min Rain = 0
KLO1 041721Z 31001KT 35/13 A3005 RMK A01 T03460133  RH  028%=      5-min Rain = 0
KLO1 041722Z 33001KT 35/13 A3005 RMK A01 T03470131  RH  027%=      5-min Rain = 0
KLO1 041723Z 01000KT 35/13 A3005 RMK A01 T03470132  RH  028%=      5-min Rain = 0
KLO1 041724Z 09001KT 35/13 A3005 RMK A01 T03460131  RH  027%=      5-min Rain = 0
KLO1 041725Z 10007KT 35/12 A3005 RMK A01 T03460122  RH  026%=      5-min Rain = 0
KLO1 041726Z 11007KT 35/12 A3005 RMK A01 T03460121  RH  026%=      5-min Rain = 0
KLO1 041727Z 11007KT 35/12 A3005 RMK A01 T03450121  RH  026%=      5-min Rain = 0
KLO1 041728Z 11008KT 35/12 A3005 RMK A01 T03460121  RH  026%=      5-min Rain = 0
KLO1 041729Z 12007KT 35/12 A3005 RMK A01 T03470120  RH  025%=      5-min Rain = 0
KLO1 041730Z 13007KT 35/12 A3004 RMK A01 T03470121  RH  025%=      5-min Rain = 0
KLO1 041731Z 12006KT 35/12 A3004 RMK A01 T03450123  RH  026%=      5-min Rain = 0
KLO1 041732Z 13007KT 35/13 A3004 RMK A01 T03460126  RH  026%=      5-min Rain = 0
KLO1 041733Z 14006KT 35/12 A3004 RMK A01 T03480120  RH  025%=      5-min Rain = 0
KLO1 041734Z 15005KT 35/12 A3004 RMK A01 T03470116  RH  025%=      5-min Rain = 0
KLO1 041735Z 16003KT 35/12 A3004 RMK A01 T03460116  RH  025%=      5-min Rain = 0
KLO1 041736Z 15003KT 35/12 A3004 RMK A01 T03460120  RH  025%=      5-min Rain = 0
KLO1 041737Z 17002KT 35/12 A3004 RMK A01 T03480121  RH  025%=      5-min Rain = 0
KLO1 041738Z 17003KT 35/12 A3004 RMK A01 T03470120  RH  025%=      5-min Rain = 0
KLO1 041739Z 12006KT 35/12 A3004 RMK A01 T03470117  RH  025%=      5-min Rain = 0
KLO1 041740Z 13007KT 35/11 A3004 RMK A01 T03490112  RH  024%=      5-min Rain = 0
KLO1 041741Z 15006KT 35/11 A3004 RMK A01 T03490113  RH  024%=      5-min Rain = 0
KLO1 041742Z 14008KT 35/11 A3004 RMK A01 T03500114  RH  024%=      5-min Rain = 0
KLO1 041743Z 14007KT 35/12 A3004 RMK A01 T03540116  RH  024%=      5-min Rain = 0
KLO1 041744Z 14006KT 36/11 A3004 RMK A01 T03550112  RH  023%=      5-min Rain = 0
KLO1 041745Z 14006KT 35/11 A3004 RMK A01 T03540112  RH  023%=      5-min Rain = 0
KLO1 041746Z 14004KT 35/11 A3004 RMK A01 T03540108  RH  023%=      5-min Rain = 0
KLO1 041747Z 09004KT 36/11 A3004 RMK A01 T03550114  RH  023%=      5-min Rain = 0
KLO1 041748Z 07005KT 35/12 A3004 RMK A01 T03540122  RH  025%=      5-min Rain = 0
KLO1 041749Z 06005KT 35/13 A3004 RMK A01 T03520127  RH  026%=      5-min Rain = 0
KLO1 041750Z 06006KT 35/12 A3004 RMK A01 T03510123  RH  025%=      5-min Rain = 0
KLO1 041751Z 06004KT 35/12 A3004 RMK A01 T03500122  RH  025%=      5-min Rain = 0
KLO1 041752Z 05007KT 35/13 A3004 RMK A01 T03500130  RH  027%=      5-min Rain = 0
KLO1 041753Z 06007KT 35/12 A3004 RMK A01 T03520123  RH  025%=      5-min Rain = 0
KLO1 041754Z 08007KT 35/12 A3004 RMK A01 T03500124  RH  026%=      5-min Rain = 0
KLO1 041755Z 07006KT 35/12 A3004 RMK A01 T03490121  RH  025%=      5-min Rain = 0
KLO1 041756Z 08008KT 35/12 A3004 RMK A01 T03480120  RH  025%=      5-min Rain = 0
KLO1 041757Z 06005KT 35/12 A3004 RMK A01 T03470116  RH  025%=      5-min Rain = 0
KLO1 041758Z 04006KT 35/12 A3004 RMK A01 T03460120  RH  025%=      5-min Rain = 0
KLO1 041759Z 02005KT 35/12 A3004 RMK A01 T03480116  RH  025%=      5-min Rain = 0
KLO1 041800Z 00004KT 35/12 A3004 RMK A01 T03490117  RH  025%=      5-min Rain = 0
KLO1 041801Z 34004KT 35/12 A3004 RMK A01 T03500115  RH  024%=      5-min Rain = 0
KLO1 041802Z 02003KT 35/12 A3004 RMK A01 T03500117  RH  024%=      5-min Rain = 0
KLO1 041803Z 06002KT 35/11 A3003 RMK A01 T03510113  RH  024%=      5-min Rain = 0
KLO1 041804Z 06004KT 35/12 A3003 RMK A01 T03530116  RH  024%=      5-min Rain = 0
KLO1 041805Z 04002KT 35/11 A3003 RMK A01 T03540107  RH  022%=      5-min Rain = 0
KLO1 041806Z 06005KT 35/11 A3003 RMK A01 T03520112  RH  023%=      5-min Rain = 0
KLO1 041807Z 08008KT 35/12 A3003 RMK A01 T03540123  RH  025%=      5-min Rain = 0
KLO1 041808Z 08008KT 36/12 A3003 RMK A01 T03550117  RH  024%=      5-min Rain = 0
KLO1 041809Z 09006KT 35/12 A3003 RMK A01 T03530119  RH  024%=      5-min Rain = 0
KLO1 041810Z 10005KT 35/11 A3003 RMK A01 T03540113  RH  023%=      5-min Rain = 0
KLO1 041811Z 09009KT 35/11 A3003 RMK A01 T03540113  RH  023%=      5-min Rain = 0
KLO1 041812Z 09008KT 35/12 A3003 RMK A01 T03540116  RH  024%=      5-min Rain = 0
KLO1 041813Z 11006KT 35/12 A3003 RMK A01 T03530116  RH  024%=      5-min Rain = 0
KLO1 041814Z 13003KT 35/12 A3003 RMK A01 T03530115  RH  024%=      5-min Rain = 0
KLO1 041815Z 14004KT 35/12 A3003 RMK A01 T03540116  RH  024%=      5-min Rain = 0
KLO1 041816Z 10008KT 36/12 A3003 RMK A01 T03550116  RH  024%=      5-min Rain = 0
KLO1 041817Z 10007KT 36/12 A3003 RMK A01 T03570117  RH  024%=      5-min Rain = 0
KLO1 041818Z 11002KT 35/12 A3003 RMK A01 T03540115  RH  024%=      5-min Rain = 0
KLO1 041819Z 11002KT 35/12 A3003 RMK A01 T03520118  RH  024%=      5-min Rain = 0
KLO1 041820Z 09005KT 36/12 A3003 RMK A01 T03550122  RH  025%=      5-min Rain = 0
KLO1 041821Z 09012KT 36/12 A3003 RMK A01 T03570117  RH  023%=      5-min Rain = 0
KLO1 041822Z 10012KT 36/11 A3003 RMK A01 T03590114  RH  023%=      5-min Rain = 0
KLO1 041823Z 10009KT 36/11 A3003 RMK A01 T03590112  RH  023%=      5-min Rain = 0
KLO1 041824Z 08007KT 36/12 A3003 RMK A01 T03570116  RH  023%=      5-min Rain = 0
KLO1 041825Z 10007KT 36/12 A3003 RMK A01 T03560115  RH  023%=      5-min Rain = 0
KLO1 041826Z 08004KT 36/12 A3003 RMK A01 T03560116  RH  023%=      5-min Rain = 0
KLO1 041827Z 10004KT 36/12 A3003 RMK A01 T03580120  RH  024%=      5-min Rain = 0
KLO1 041828Z 09009KT 36/12 A3003 RMK A01 T03620119  RH  023%=      5-min Rain = 0
KLO1 041829Z 10010KT 36/11 A3003 RMK A01 T03600114  RH  023%=      5-min Rain = 0
KLO1 041830Z 11007KT 36/12 A3003 RMK A01 T03550116  RH  024%=      5-min Rain = 0
KLO1 041831Z 11012KT 35/12 A3003 RMK A01 T03540118  RH  024%=      5-min Rain = 0
KLO1 041832Z 11007KT 36/12 A3003 RMK A01 T03550118  RH  024%=      5-min Rain = 0
KLO1 041833Z 08007KT 36/12 A3002 RMK A01 T03560121  RH  024%=      5-min Rain = 0
KLO1 041834Z 08005KT 36/12 A3003 RMK A01 T03570120  RH  024%=      5-min Rain = 0
KLO1 041835Z 05006KT 36/13 A3002 RMK A01 T03560125  RH  025%=      5-min Rain = 0
KLO1 041836Z 05006KT 36/12 A3002 RMK A01 T03570122  RH  024%=      5-min Rain = 0
KLO1 041837Z 03005KT 36/12 A3002 RMK A01 T03580119  RH  024%=      5-min Rain = 0
KLO1 041838Z 03006KT 36/12 A3002 RMK A01 T03560123  RH  024%=      5-min Rain = 0
KLO1 041839Z 09009G15KT 36/12 A3003 RMK A01 T03570120  RH  024%=      5-min Rain = 0
KLO1 041840Z 09008KT 36/12 A3002 RMK A01 T03570118  RH  024%=      5-min Rain = 0
KLO1 041841Z 09010KT 36/12 A3002 RMK A01 T03590122  RH  024%=      5-min Rain = 0
KLO1 041842Z 09011KT 36/12 A3002 RMK A01 T03640120  RH  023%=      5-min Rain = 0
KLO1 041843Z 12010KT 37/12 A3002 RMK A01 T03660120  RH  023%=      5-min Rain = 0
KLO1 041844Z 11010KT 37/12 A3002 RMK A01 T03670116  RH  022%=      5-min Rain = 0
KLO1 041845Z 09005KT 36/11 A3002 RMK A01 T03610113  RH  022%=      5-min Rain = 0
KLO1 041846Z 12010KT 36/12 A3002 RMK A01 T03580117  RH  023%=      5-min Rain = 0
KLO1 041847Z 11010KT 36/12 A3002 RMK A01 T03590116  RH  023%=      5-min Rain = 0
KLO1 041848Z 11008KT 36/12 A3002 RMK A01 T03600118  RH  023%=      5-min Rain = 0
KLO1 041849Z 09008KT 36/12 A3002 RMK A01 T03610121  RH  024%=      5-min Rain = 0
KLO1 041850Z 09007KT 36/12 A3002 RMK A01 T03610122  RH  024%=      5-min Rain = 0
KLO1 041851Z 06008KT 36/13 A3002 RMK A01 T03630126  RH  024%=      5-min Rain = 0
KLO1 041852Z 06007KT 36/13 A3002 RMK A01 T03610126  RH  024%=      5-min Rain = 0
KLO1 041853Z 07007KT 36/13 A3002 RMK A01 T03590125  RH  025%=      5-min Rain = 0
KLO1 041854Z 04006KT 36/13 A3002 RMK A01 T03570125  RH  025%=      5-min Rain = 0
KLO1 041855Z 04008KT 36/13 A3002 RMK A01 T03570129  RH  025%=      5-min Rain = 0
KLO1 041856Z 05004KT 36/12 A3002 RMK A01 T03590122  RH  024%=      5-min Rain = 0
KLO1 041857Z 03003KT 36/12 A3001 RMK A01 T03570121  RH  024%=      5-min Rain = 0
KLO1 041858Z 02001KT 36/12 A3001 RMK A01 T03560121  RH  024%=      5-min Rain = 0
KLO1 041859Z 12004G10KT 36/13 A3001 RMK A01 T03570125  RH  025%=      5-min Rain = 0
KLO1 041900Z 11010KT 36/12 A3001 RMK A01 T03610119  RH  023%=      5-min Rain = 0
KLO1 041901Z 09006KT 36/12 A3001 RMK A01 T03610116  RH  023%=      5-min Rain = 0
KLO1 041902Z 08006KT 36/12 A3001 RMK A01 T03580117  RH  023%=      5-min Rain = 0
KLO1 041903Z 06007KT 36/12 A3001 RMK A01 T03590120  RH  024%=      5-min Rain = 0
KLO1 041904Z 06005KT 36/12 A3001 RMK A01 T03590122  RH  024%=      5-min Rain = 0
KLO1 041905Z 09003KT 36/13 A3001 RMK A01 T03600125  RH  024%=      5-min Rain = 0
KLO1 041906Z 16005KT 36/12 A3001 RMK A01 T03600119  RH  023%=      5-min Rain = 0
KLO1 041907Z 20005KT 36/12 A3001 RMK A01 T03610119  RH  023%=      5-min Rain = 0
KLO1 041908Z 20002KT 36/11 A3001 RMK A01 T03590114  RH  023%=      5-min Rain = 0
KLO1 041909Z 22001KT 36/12 A3001 RMK A01 T03570117  RH  024%=      5-min Rain = 0
KLO1 041910Z 16003KT 36/12 A3001 RMK A01 T03580118  RH  023%=      5-min Rain = 0
KLO1 041911Z 12002KT 36/11 A3001 RMK A01 T03590114  RH  023%=      5-min Rain = 0
KLO1 041912Z 10001KT 36/11 A3001 RMK A01 T03590114  RH  023%=      5-min Rain = 0
KLO1 041913Z 06003G10KT 36/12 A3001 RMK A01 T03600115  RH  023%=      5-min Rain = 0
KLO1 041914Z 07006KT 36/12 A3001 RMK A01 T03610118  RH  023%=      5-min Rain = 0
KLO1 041915Z 06003KT 36/11 A3001 RMK A01 T03600113  RH  022%=      5-min Rain = 0
KLO1 041916Z 06005KT 36/12 A3001 RMK A01 T03600123  RH  024%=      5-min Rain = 0
KLO1 041917Z 09007KT 36/12 A3001 RMK A01 T03640123  RH  024%=      5-min Rain = 0
KLO1 041918Z 09008KT 37/12 A3001 RMK A01 T03650120  RH  023%=      5-min Rain = 0
KLO1 041919Z 08007KT 37/12 A3001 RMK A01 T03650118  RH  023%=      5-min Rain = 0
KLO1 041920Z 07007KT 37/12 A3001 RMK A01 T03650119  RH  023%=      5-min Rain = 0
KLO1 041921Z 08008KT 36/12 A3001 RMK A01 T03630120  RH  023%=      5-min Rain = 0
KLO1 041922Z 11006KT 36/12 A3001 RMK A01 T03610117  RH  023%=      5-min Rain = 0
KLO1 041923Z 14002KT 36/12 A30 RMK A01 T03610117  RH  023%=      5-min Rain = 0
KLO1 041924Z 02001KT 36/12 A30 RMK A01 T03610118  RH  023%=      5-min Rain = 0
KLO1 041925Z 18001KT 36/12 A30 RMK A01 T03640122  RH  023%=      5-min Rain = 0
KLO1 041926Z 14005G10KT 37/12 A30 RMK A01 T03680120  RH  023%=      5-min Rain = 0
KLO1 041927Z 14010KT 37/12 A30 RMK A01 T03690118  RH  022%=      5-min Rain = 0
KLO1 041928Z 14009KT 37/12 A30 RMK A01 T03690118  RH  022%=      5-min Rain = 0
KLO1 041929Z 14010KT 37/12 A30 RMK A01 T03700119  RH  022%=      5-min Rain = 0
KLO1 041930Z 15010KT 37/12 A30 RMK A01 T03700118  RH  022%=      5-min Rain = 0
KLO1 041931Z 15006KT 37/11 A30 RMK A01 T03690114  RH  022%=      5-min Rain = 0
KLO1 041932Z 10004KT 37/11 A30 RMK A01 T03650114  RH  022%=      5-min Rain = 0
KLO1 041933Z 10003KT 37/12 A30 RMK A01 T03650117  RH  022%=      5-min Rain = 0
KLO1 041934Z 14005KT 37/12 A30 RMK A01 T03650115  RH  022%=      5-min Rain = 0
KLO1 041935Z 12003KT 37/11 A30 RMK A01 T03680114  RH  022%=      5-min Rain = 0
KLO1 041936Z 12004G11KT 37/11 A30 RMK A01 T03670112  RH  022%=      5-min Rain = 0
KLO1 041937Z 12007KT 37/11 A30 RMK A01 T03670109  RH  021%=      5-min Rain = 0
KLO1 041938Z 11002KT 37/11 A30 RMK A01 T03660108  RH  021%=      5-min Rain = 0
KLO1 041939Z 09002KT 37/11 A30 RMK A01 T03660108  RH  021%=      5-min Rain = 0
KLO1 041940Z 11003KT 37/11 A30 RMK A01 T03670110  RH  021%=      5-min Rain = 0
KLO1 041941Z 15005KT 37/11 A30 RMK A01 T03690110  RH  021%=      5-min Rain = 0
KLO1 041942Z 19004KT 37/11 A30 RMK A01 T03680112  RH  021%=      5-min Rain = 0
KLO1 041943Z 17005KT 37/11 A2999 RMK A01 T03670113  RH  022%=      5-min Rain = 0
KLO1 041944Z 14004KT 37/11 A2999 RMK A01 T03700113  RH  021%=      5-min Rain = 0
KLO1 041945Z 17006KT 37/11 A2999 RMK A01 T03720112  RH  021%=      5-min Rain = 0
KLO1 041946Z 16005KT 37/12 A2999 RMK A01 T03710115  RH  022%=      5-min Rain = 0
KLO1 041947Z 12004KT 37/12 A2999 RMK A01 T03700115  RH  022%=      5-min Rain = 0
KLO1 041948Z 16003KT 37/12 A2999 RMK A01 T03690116  RH  022%=      5-min Rain = 0
KLO1 041949Z 18009KT 37/12 A2999 RMK A01 T03700116  RH  022%=      5-min Rain = 0
KLO1 041950Z 18004KT 37/12 A2999 RMK A01 T03690115  RH  022%=      5-min Rain = 0
KLO1 041951Z 22001KT 37/11 A2999 RMK A01 T03670112  RH  022%=      5-min Rain = 0
KLO1 041952Z 31001KT 37/11 A2999 RMK A01 T03650113  RH  022%=      5-min Rain = 0
KLO1 041953Z 17000KT 37/11 A2999 RMK A01 T03670114  RH  022%=      5-min Rain = 0
KLO1 041954Z 16005KT 37/12 A2999 RMK A01 T03700116  RH  022%=      5-min Rain = 0
KLO1 041955Z 18002KT 37/11 A2999 RMK A01 T03700112  RH  021%=      5-min Rain = 0
KLO1 041956Z 11002KT 37/12 A2999 RMK A01 T03680116  RH  022%=      5-min Rain = 0
KLO1 041957Z 10005KT 37/11 A2999 RMK A01 T03700114  RH  021%=      5-min Rain = 0
KLO1 041958Z 10006KT 37/12 A2999 RMK A01 T03700116  RH  022%=      5-min Rain = 0
KLO1 041959Z 09006KT 37/12 A2999 RMK A01 T03710117  RH  022%=      5-min Rain = 0
KLO1 042000Z 08008KT 37/12 A2999 RMK A01 T03720118  RH  022%=      5-min Rain = 0
KLO1 042001Z 08010KT 37/12 A2999 RMK A01 T03710119  RH  022%=      5-min Rain = 0
KLO1 042002Z 07008KT 37/12 A2999 RMK A01 T03720121  RH  022%=      5-min Rain = 0
KLO1 042003Z 10007KT 37/12 A2999 RMK A01 T03720117  RH  022%=      5-min Rain = 0
KLO1 042004Z 08008KT 37/12 A2999 RMK A01 T03720116  RH  022%=      5-min Rain = 0
KLO1 042005Z 05009KT 37/12 A2999 RMK A01 T03720120  RH  022%=      5-min Rain = 0
KLO1 042006Z 06006KT 37/12 A2998 RMK A01 T03710120  RH  022%=      5-min Rain = 0
KLO1 042007Z 03007KT 37/12 A2998 RMK A01 T03690121  RH  023%=      5-min Rain = 0
KLO1 042008Z 02008KT 37/12 A2998 RMK A01 T03690117  RH  022%=      5-min Rain = 0
KLO1 042009Z 02006KT 37/12 A2998 RMK A01 T03660117  RH  022%=      5-min Rain = 0
KLO1 042010Z 02008KT 37/12 A2998 RMK A01 T03660116  RH  022%=      5-min Rain = 0
KLO1 042011Z 04007KT 37/12 A2998 RMK A01 T03650116  RH  022%=      5-min Rain = 0
KLO1 042012Z 07011KT 37/12 A2998 RMK A01 T03670119  RH  023%=      5-min Rain = 0
KLO1 042013Z 09011KT 37/11 A2998 RMK A01 T03700112  RH  021%=      5-min Rain = 0
KLO1 042014Z 09012KT 37/11 A2998 RMK A01 T03710114  RH  021%=      5-min Rain = 0
KLO1 042015Z 08011KT 37/11 A2998 RMK A01 T03730114  RH  021%=      5-min Rain = 0
KLO1 042016Z 07008KT 37/12 A2998 RMK A01 T03720118  RH  022%=      5-min Rain = 0
KLO1 042017Z 09007KT 37/12 A2998 RMK A01 T03700116  RH  022%=      5-min Rain = 0
KLO1 042018Z 09009KT 37/11 A2998 RMK A01 T03730112  RH  021%=      5-min Rain = 0
KLO1 042019Z 09008KT 37/11 A2998 RMK A01 T03730113  RH  021%=      5-min Rain = 0
KLO1 042020Z 10004KT 37/11 A2998 RMK A01 T03710111  RH  021%=      5-min Rain = 0
KLO1 042021Z 11003KT 37/11 A2998 RMK A01 T03710113  RH  021%=      5-min Rain = 0
KLO1 042022Z 08004KT 37/11 A2998 RMK A01 T03740114  RH  021%=      5-min Rain = 0
KLO1 042023Z 06004KT 38/12 A2998 RMK A01 T03750117  RH  021%=      5-min Rain = 0
KLO1 042024Z 04004KT 37/11 A2998 RMK A01 T03740114  RH  021%=      5-min Rain = 0
KLO1 042025Z 05005KT 37/12 A2998 RMK A01 T03730116  RH  021%=      5-min Rain = 0
KLO1 042026Z 06006KT 38/12 A2998 RMK A01 T03750119  RH  022%=      5-min Rain = 0
KLO1 042027Z 11007KT 38/12 A2998 RMK A01 T03780115  RH  021%=      5-min Rain = 0
KLO1 042028Z 13009KT 38/11 A2998 RMK A01 T03810113  RH  020%=      5-min Rain = 0
KLO1 042029Z 13009KT 38/11 A2998 RMK A01 T03830110  RH  020%=      5-min Rain = 0
KLO1 042030Z 13006KT 38/11 A2998 RMK A01 T03800107  RH  019%=      5-min Rain = 0
KLO1 042031Z 11003KT 38/10 A2998 RMK A01 T03750104  RH  020%=      5-min Rain = 0
KLO1 042032Z 09001KT 37/11 A2998 RMK A01 T03730108  RH  020%=      5-min Rain = 0
KLO1 042033Z 11004KT 38/11 A2998 RMK A01 T03750105  RH  020%=      5-min Rain = 0
KLO1 042034Z 16004KT 38/10 A2998 RMK A01 T03750103  RH  019%=      5-min Rain = 0
KLO1 042035Z 17003KT 37/10 A2998 RMK A01 T03740102  RH  019%=      5-min Rain = 0
KLO1 042036Z 16004KT 37/10 A2998 RMK A01 T03720102  RH  020%=      5-min Rain = 0
KLO1 042037Z 18003KT 37/10 A2998 RMK A01 T03710102  RH  020%=      5-min Rain = 0
KLO1 042038Z 22003KT 37/10 A2997 RMK A01 T03710101  RH  020%=      5-min Rain = 0
KLO1 042039Z 26003KT 37/10 A2997 RMK A01 T03690101  RH  020%=      5-min Rain = 0
KLO1 042040Z 30002KT 37/10 A2997 RMK A01 T03700104  RH  020%=      5-min Rain = 0
KLO1 042041Z 33001KT 37/10 A2997 RMK A01 T03720104  RH  020%=      5-min Rain = 0
KLO1 042042Z 32002KT 37/11 A2997 RMK A01 T03730106  RH  020%=      5-min Rain = 0
KLO1 042043Z 32002KT 37/10 A2997 RMK A01 T03740104  RH  020%=      5-min Rain = 0
KLO1 042044Z 02002KT 38/11 A2997 RMK A01 T03750106  RH  020%=      5-min Rain = 0
KLO1 042045Z 08002KT 38/11 A2997 RMK A01 T03750105  RH  020%=      5-min Rain = 0
KLO1 042046Z 10002KT 38/10 A2997 RMK A01 T03750104  RH  020%=      5-min Rain = 0
KLO1 042047Z 17002KT 38/10 A2997 RMK A01 T03760104  RH  020%=      5-min Rain = 0
KLO1 042048Z 15003KT 38/10 A2997 RMK A01 T03780104  RH  019%=      5-min Rain = 0
KLO1 042049Z 15008KT 38/10 A2997 RMK A01 T03810098  RH  018%=      5-min Rain = 0
KLO1 042050Z 15010KT 38/10 A2997 RMK A01 T03820097  RH  018%=      5-min Rain = 0
KLO1 042051Z 16009KT 38/10 A2997 RMK A01 T03810096  RH  018%=      5-min Rain = 0
KLO1 042052Z 18009KT 38/10 A2997 RMK A01 T03800096  RH  018%=      5-min Rain = 0
KLO1 042053Z 18009KT 38/10 A2997 RMK A01 T03800098  RH  018%=      5-min Rain = 0
KLO1 042054Z 16008KT 38/10 A2997 RMK A01 T03810099  RH  018%=      5-min Rain = 0
KLO1 042055Z 16005KT 38/10 A2997 RMK A01 T03800097  RH  018%=      5-min Rain = 0
KLO1 042056Z 20006KT 38/10 A2996 RMK A01 T03790097  RH  018%=      5-min Rain = 0
KLO1 042057Z 19004KT 38/10 A2996 RMK A01 T03790097  RH  018%=      5-min Rain = 0
KLO1 042058Z 14004KT 38/10 A2996 RMK A01 T03780097  RH  018%=      5-min Rain = 0
KLO1 042059Z 10005KT 38/10 A2996 RMK A01 T03800095  RH  018%=      5-min Rain = 0
KLO1 042100Z 11005KT 38/09 A2996 RMK A01 T03800093  RH  018%=      5-min Rain = 0
KLO1 042101Z 09006G11KT 38/10 A2996 RMK A01 T03810098  RH  018%=      5-min Rain = 0
KLO1 042102Z 08010KT 38/10 A2996 RMK A01 T03820095  RH  018%=      5-min Rain = 0
KLO1 042103Z 09007KT 38/09 A2996 RMK A01 T03790094  RH  018%=      5-min Rain = 0
KLO1 042104Z 08006KT 38/09 A2996 RMK A01 T03760091  RH  018%=      5-min Rain = 0
KLO1 042105Z 07007KT 37/10 A2996 RMK A01 T03730095  RH  019%=      5-min Rain = 0
KLO1 042106Z 08008KT 37/10 A2996 RMK A01 T03720095  RH  019%=      5-min Rain = 0
KLO1 042107Z 07009KT 37/10 A2996 RMK A01 T03710097  RH  019%=      5-min Rain = 0
KLO1 042108Z 06007KT 37/10 A2996 RMK A01 T03710095  RH  019%=      5-min Rain = 0
KLO1 042109Z 07005KT 37/10 A2996 RMK A01 T03700096  RH  019%=      5-min Rain = 0
KLO1 042110Z 10005KT 37/10 A2996 RMK A01 T03680096  RH  019%=      5-min Rain = 0
KLO1 042111Z 09006KT 37/09 A2996 RMK A01 T03710094  RH  019%=      5-min Rain = 0
KLO1 042112Z 08004KT 37/09 A2996 RMK A01 T03720092  RH  018%=      5-min Rain = 0
KLO1 042113Z 09006KT 37/10 A2996 RMK A01 T03710099  RH  019%=      5-min Rain = 0
KLO1 042114Z 11011G17KT 37/10 A2996 RMK A01 T03740097  RH  019%=      5-min Rain = 0
KLO1 042115Z 10007KT 38/10 A2996 RMK A01 T03770098  RH  019%=      5-min Rain = 0
KLO1 042116Z 13009KT 38/09 A2996 RMK A01 T03760094  RH  018%=      5-min Rain = 0
KLO1 042117Z 13013KT 38/09 A2995 RMK A01 T03760091  RH  018%=      5-min Rain = 0
KLO1 042118Z 11007KT 38/09 A2996 RMK A01 T03760090  RH  018%=      5-min Rain = 0
KLO1 042119Z 13002KT 37/09 A2995 RMK A01 T03730090  RH  018%=      5-min Rain = 0
KLO1 042120Z 13002KT 37/09 A2995 RMK A01 T03710090  RH  018%=      5-min Rain = 0
KLO1 042121Z 15007KT 37/09 A2995 RMK A01 T03720092  RH  018%=      5-min Rain = 0
KLO1 042122Z 20006KT 38/09 A2995 RMK A01 T03760094  RH  018%=      5-min Rain = 0
KLO1 042123Z 16008G15KT 38/10 A2995 RMK A01 T03770095  RH  018%=      5-min Rain = 0
KLO1 042124Z 14013KT 38/10 A2995 RMK A01 T03790096  RH  018%=      5-min Rain = 0
KLO1 042125Z 15012KT 38/09 A2995 RMK A01 T03800094  RH  018%=      5-min Rain = 0
KLO1 042126Z 13011KT 38/09 A2995 RMK A01 T03780094  RH  018%=      5-min Rain = 0
KLO1 042127Z 13014KT 38/09 A2995 RMK A01 T03780093  RH  018%=      5-min Rain = 0
KLO1 042128Z 13014KT 38/09 A2995 RMK A01 T03770092  RH  018%=      5-min Rain = 0
KLO1 042129Z 14015KT 38/09 A2995 RMK A01 T03790094  RH  018%=      5-min Rain = 0
KLO1 042130Z 14010KT 38/09 A2995 RMK A01 T03810094  RH  018%=      5-min Rain = 0
KLO1 042131Z 14009KT 38/10 A2995 RMK A01 T03810095  RH  018%=      5-min Rain = 0
KLO1 042132Z 14007KT 38/09 A2995 RMK A01 T03820094  RH  018%=      5-min Rain = 0
KLO1 042133Z 13011KT 38/09 A2995 RMK A01 T03810094  RH  018%=      5-min Rain = 0
KLO1 042134Z 11008KT 38/09 A2995 RMK A01 T03820092  RH  017%=      5-min Rain = 0
KLO1 042135Z 10008KT 38/09 A2995 RMK A01 T03800093  RH  018%=      5-min Rain = 0
KLO1 042136Z 11006KT 38/09 A2995 RMK A01 T03800094  RH  018%=      5-min Rain = 0
KLO1 042137Z 13007KT 38/10 A2995 RMK A01 T03800095  RH  018%=      5-min Rain = 0
KLO1 042138Z 13007KT 38/10 A2995 RMK A01 T03830096  RH  018%=      5-min Rain = 0
KLO1 042139Z 13006KT 38/09 A2995 RMK A01 T03820091  RH  017%=      5-min Rain = 0
KLO1 042140Z 15003KT 38/09 A2995 RMK A01 T03790090  RH  018%=      5-min Rain = 0
KLO1 042141Z 15003KT 38/09 A2994 RMK A01 T03770090  RH  018%=      5-min Rain = 0
KLO1 042142Z 15002KT 38/09 A2994 RMK A01 T03770091  RH  018%=      5-min Rain = 0
KLO1 042143Z 16006KT 38/10 A2994 RMK A01 T03790095  RH  018%=      5-min Rain = 0
KLO1 042144Z 16007KT 38/10 A2994 RMK A01 T03830095  RH  018%=      5-min Rain = 0
KLO1 042145Z 18006KT 38/09 A2994 RMK A01 T03830093  RH  017%=      5-min Rain = 0
KLO1 042146Z 22004KT 38/09 A2994 RMK A01 T03810092  RH  017%=      5-min Rain = 0
KLO1 042147Z 22004KT 38/09 A2994 RMK A01 T03800092  RH  018%=      5-min Rain = 0
KLO1 042148Z 21003KT 38/09 A2994 RMK A01 T03800091  RH  017%=      5-min Rain = 0
KLO1 042149Z 20005KT 38/09 A2994 RMK A01 T03800093  RH  018%=      5-min Rain = 0
KLO1 042150Z 19005KT 38/09 A2994 RMK A01 T03810092  RH  017%=      5-min Rain = 0
KLO1 042151Z 19005KT 38/09 A2994 RMK A01 T03800091  RH  017%=      5-min Rain = 0
KLO1 042152Z 18004KT 38/09 A2994 RMK A01 T03790090  RH  017%=      5-min Rain = 0
KLO1 042153Z 16001KT 38/09 A2994 RMK A01 T03780089  RH  017%=      5-min Rain = 0
KLO1 042154Z 20002KT 38/09 A2994 RMK A01 T03770090  RH  018%=      5-min Rain = 0
KLO1 042155Z 23003KT 38/09 A2994 RMK A01 T03790093  RH  018%=      5-min Rain = 0
KLO1 042156Z 24002KT 38/09 A2993 RMK A01 T03800090  RH  017%=      5-min Rain = 0
KLO1 042157Z 24002KT 38/09 A2993 RMK A01 T03810091  RH  017%=      5-min Rain = 0
KLO1 042158Z 29002KT 38/09 A2993 RMK A01 T03810093  RH  018%=      5-min Rain = 0
KLO1 042159Z 05002KT 38/09 A2993 RMK A01 T03820094  RH  018%=      5-min Rain = 0
KLO1 042200Z 07005KT 38/10 A2993 RMK A01 T03820100  RH  018%=      5-min Rain = 0
KLO1 042201Z 06003KT 38/09 A2993 RMK A01 T03820093  RH  017%=      5-min Rain = 0
KLO1 042202Z 08001KT 38/09 A2993 RMK A01 T03790092  RH  018%=      5-min Rain = 0
KLO1 042203Z 15001KT 38/09 A2993 RMK A01 T03790093  RH  018%=      5-min Rain = 0
KLO1 042204Z 05000KT 38/09 A2993 RMK A01 T03790088  RH  017%=      5-min Rain = 0
KLO1 042205Z 04003KT 38/09 A2993 RMK A01 T03790090  RH  017%=      5-min Rain = 0
KLO1 042206Z 07005G10KT 38/10 A2993 RMK A01 T03780095  RH  018%=      5-min Rain = 0
KLO1 042207Z 10010KT 38/10 A2993 RMK A01 T03780100  RH  019%=      5-min Rain = 0
KLO1 042208Z 09010KT 38/09 A2993 RMK A01 T03790094  RH  018%=      5-min Rain = 0
KLO1 042209Z 09012KT 38/10 A2993 RMK A01 T03780098  RH  018%=      5-min Rain = 0
KLO1 042210Z 07009KT 38/10 A2992 RMK A01 T03760101  RH  019%=      5-min Rain = 0
KLO1 042211Z 09011KT 37/10 A2992 RMK A01 T03730099  RH  019%=      5-min Rain = 0
KLO1 042212Z 09010KT 37/10 A2992 RMK A01 T03720096  RH  019%=      5-min Rain = 0
KLO1 042213Z 10009KT 37/09 A2992 RMK A01 T03730094  RH  018%=      5-min Rain = 0
KLO1 042214Z 11007KT 37/09 A2992 RMK A01 T03740091  RH  018%=      5-min Rain = 0
KLO1 042215Z 09006KT 37/09 A2992 RMK A01 T03740092  RH  018%=      5-min Rain = 0
KLO1 042216Z 07007KT 37/09 A2992 RMK A01 T03730094  RH  018%=      5-min Rain = 0
KLO1 042217Z 05006KT 37/09 A2992 RMK A01 T03700092  RH  019%=      5-min Rain = 0
KLO1 042218Z 04006KT 37/09 A2992 RMK A01 T03690093  RH  019%=      5-min Rain = 0
KLO1 042219Z 05006KT 37/10 A2992 RMK A01 T03690095  RH  019%=      5-min Rain = 0
KLO1 042220Z 05004KT 37/09 A2992 RMK A01 T03690093  RH  019%=      5-min Rain = 0
KLO1 042221Z 07005KT 37/10 A2992 RMK A01 T03690097  RH  019%=      5-min Rain = 0
KLO1 042222Z 09004KT 37/10 A2992 RMK A01 T03690096  RH  019%=      5-min Rain = 0
KLO1 042223Z 09002KT 37/09 A2992 RMK A01 T03700091  RH  018%=      5-min Rain = 0
KLO1 042224Z 05002KT 37/09 A2992 RMK A01 T03700093  RH  019%=      5-min Rain = 0
KLO1 042225Z 06003KT 37/10 A2992 RMK A01 T03700098  RH  019%=      5-min Rain = 0
KLO1 042226Z 09002KT 37/10 A2992 RMK A01 T03710097  RH  019%=      5-min Rain = 0
KLO1 042227Z 11001KT 37/10 A2992 RMK A01 T03710096  RH  019%=      5-min Rain = 0
KLO1 042228Z 14004KT 37/09 A2992 RMK A01 T03710093  RH  019%=      5-min Rain = 0
KLO1 042229Z 14004KT 37/09 A2992 RMK A01 T03710091  RH  018%=      5-min Rain = 0
KLO1 042230Z 14007G12KT 37/09 A2992 RMK A01 T03720093  RH  018%=      5-min Rain = 0
KLO1 042231Z 14010KT 38/09 A2992 RMK A01 T03750093  RH  018%=      5-min Rain = 0
KLO1 042232Z 14010KT 38/09 A2992 RMK A01 T03760091  RH  018%=      5-min Rain = 0
KLO1 042233Z 14010KT 38/09 A2992 RMK A01 T03750090  RH  018%=      5-min Rain = 0
KLO1 042234Z 13010KT 38/09 A2992 RMK A01 T03760091  RH  018%=      5-min Rain = 0
KLO1 042235Z 12008KT 38/09 A2992 RMK A01 T03780091  RH  018%=      5-min Rain = 0
KLO1 042236Z 12006KT 38/09 A2992 RMK A01 T03770089  RH  017%=      5-min Rain = 0
KLO1 042237Z 12006KT 38/09 A2991 RMK A01 T03760091  RH  018%=      5-min Rain = 0
KLO1 042238Z 10008KT 38/09 A2991 RMK A01 T03790092  RH  018%=      5-min Rain = 0
KLO1 042239Z 12008KT 38/09 A2991 RMK A01 T03790092  RH  018%=      5-min Rain = 0
KLO1 042240Z 12007KT 38/09 A2991 RMK A01 T03790091  RH  017%=      5-min Rain = 0
KLO1 042241Z 11005KT 38/09 A2991 RMK A01 T03790090  RH  017%=      5-min Rain = 0
KLO1 042242Z 12008KT 38/09 A2991 RMK A01 T03770090  RH  018%=      5-min Rain = 0
KLO1 042243Z 13009KT 38/09 A2991 RMK A01 T03760090  RH  018%=      5-min Rain = 0
KLO1 042244Z 11008KT 38/09 A2991 RMK A01 T03770091  RH  018%=      5-min Rain = 0
KLO1 042245Z 12007KT 38/09 A2991 RMK A01 T03780093  RH  018%=      5-min Rain = 0
KLO1 042246Z 14006KT 38/09 A2991 RMK A01 T03810092  RH  017%=      5-min Rain = 0
KLO1 042247Z 11004KT 38/09 A2991 RMK A01 T03810091  RH  017%=      5-min Rain = 0
KLO1 042248Z 11002KT 38/09 A2991 RMK A01 T03810090  RH  017%=      5-min Rain = 0
KLO1 042249Z 08003KT 38/09 A2991 RMK A01 T03810092  RH  017%=      5-min Rain = 0
KLO1 042250Z 09006KT 38/09 A2991 RMK A01 T03810092  RH  017%=      5-min Rain = 0
KLO1 042251Z 09007KT 38/10 A2991 RMK A01 T03800095  RH  018%=      5-min Rain = 0
KLO1 042252Z 10006KT 38/09 A2991 RMK A01 T03790091  RH  017%=      5-min Rain = 0
KLO1 042253Z 13005KT 38/09 A2991 RMK A01 T03790094  RH  018%=      5-min Rain = 0
KLO1 042254Z 15007KT 38/09 A2991 RMK A01 T03810092  RH  018%=      5-min Rain = 0
KLO1 042255Z 14007KT 38/09 A2991 RMK A01 T03820091  RH  017%=      5-min Rain = 0
KLO1 042256Z 14004KT 38/09 A2991 RMK A01 T03810089  RH  017%=      5-min Rain = 0
KLO1 042257Z 17005KT 38/09 A2991 RMK A01 T03790089  RH  017%=      5-min Rain = 0
KLO1 042258Z 15004KT 38/09 A2991 RMK A01 T03780089  RH  017%=      5-min Rain = 0
KLO1 042259Z 18005KT 38/09 A2991 RMK A01 T03780089  RH  017%=      5-min Rain = 0
KLO1 042300Z 18006KT 38/09 A2991 RMK A01 T03790090  RH  017%=      5-min Rain = 0
KLO1 042301Z 16009KT 38/09 A2991 RMK A01 T03810091  RH  017%=      5-min Rain = 0
KLO1 042302Z 15008KT 38/09 A2991 RMK A01 T03820090  RH  017%=      5-min Rain = 0
KLO1 042303Z 14004KT 38/09 A2991 RMK A01 T03810089  RH  017%=      5-min Rain = 0
KLO1 042304Z 18008KT 38/09 A2991 RMK A01 T03820091  RH  017%=      5-min Rain = 0
KLO1 042305Z 18008KT 38/09 A299 RMK A01 T03830090  RH  017%=      5-min Rain = 0
KLO1 042306Z 18006KT 38/09 A299 RMK A01 T03820090  RH  017%=      5-min Rain = 0
KLO1 042307Z 18006KT 38/09 A299 RMK A01 T03820089  RH  017%=      5-min Rain = 0
KLO1 042308Z 20004KT 38/09 A299 RMK A01 T03800090  RH  017%=      5-min Rain = 0
KLO1 042309Z 18004G10KT 38/09 A299 RMK A01 T03810089  RH  017%=      5-min Rain = 0
KLO1 042310Z 19009KT 38/09 A299 RMK A01 T03830089  RH  017%=      5-min Rain = 0
KLO1 042311Z 17005KT 38/09 A299 RMK A01 T03810090  RH  017%=      5-min Rain = 0
KLO1 042312Z 17004KT 38/09 A299 RMK A01 T03800088  RH  017%=      5-min Rain = 0
KLO1 042313Z 19005KT 38/09 A299 RMK A01 T03790089  RH  017%=      5-min Rain = 0
KLO1 042314Z 17004KT 38/09 A299 RMK A01 T03790091  RH  017%=      5-min Rain = 0
KLO1 042315Z 17004KT 38/09 A299 RMK A01 T03790089  RH  017%=      5-min Rain = 0
KLO1 042316Z 16007KT 38/09 A299 RMK A01 T03790091  RH  017%=      5-min Rain = 0
KLO1 042317Z 12005KT 38/09 A299 RMK A01 T03810091  RH  017%=      5-min Rain = 0
KLO1 042318Z 12006KT 38/09 A299 RMK A01 T03820091  RH  017%=      5-min Rain = 0
KLO1 042319Z 13007KT 38/09 A299 RMK A01 T03830093  RH  017%=      5-min Rain = 0
KLO1 042320Z 10006KT 38/09 A299 RMK A01 T03840091  RH  017%=      5-min Rain = 0
KLO1 042321Z 11008KT 38/09 A299 RMK A01 T03810090  RH  017%=      5-min Rain = 0
KLO1 042322Z 11008KT 38/09 A299 RMK A01 T03790089  RH  017%=      5-min Rain = 0
KLO1 042323Z 10006KT 38/09 A299 RMK A01 T03780089  RH  017%=      5-min Rain = 0
KLO1 042324Z 08004KT 38/09 A299 RMK A01 T03760088  RH  017%=      5-min Rain = 0
KLO1 042325Z 07005KT 38/09 A299 RMK A01 T03750090  RH  018%=      5-min Rain = 0
KLO1 042326Z 08004KT 38/09 A2989 RMK A01 T03750094  RH  018%=      5-min Rain = 0
KLO1 042327Z 10005KT 38/09 A2989 RMK A01 T03750094  RH  018%=      5-min Rain = 0
KLO1 042328Z 09005KT 38/09 A2989 RMK A01 T03760091  RH  018%=      5-min Rain = 0
KLO1 042329Z 11008G13KT 38/09 A2989 RMK A01 T03760093  RH  018%=      5-min Rain = 0
KLO1 042330Z 12010KT 38/09 A2989 RMK A01 T03800093  RH  018%=      5-min Rain = 0
KLO1 042331Z 14008KT 38/09 A2989 RMK A01 T03840093  RH  017%=      5-min Rain = 0
KLO1 042332Z 14008KT 39/09 A2989 RMK A01 T03870090  RH  017%=      5-min Rain = 0
KLO1 042333Z 12012G17KT 39/09 A2989 RMK A01 T03860089  RH  017%=      5-min Rain = 0
KLO1 042334Z 13007KT 38/09 A2989 RMK A01 T03830087  RH  017%=      5-min Rain = 0
KLO1 042335Z 13010KT 38/09 A2989 RMK A01 T03800088  RH  017%=      5-min Rain = 0
KLO1 042336Z 12009KT 38/09 A2989 RMK A01 T03800087  RH  017%=      5-min Rain = 0
KLO1 042337Z 11007KT 38/09 A2989 RMK A01 T03780087  RH  017%=      5-min Rain = 0
KLO1 042338Z 11007KT 38/09 A2989 RMK A01 T03770087  RH  017%=      5-min Rain = 0
KLO1 042339Z 12005KT 38/09 A2989 RMK A01 T03760087  RH  017%=      5-min Rain = 0
KLO1 042340Z 13003KT 38/09 A2989 RMK A01 T03760087  RH  017%=      5-min Rain = 0
KLO1 042341Z 11004KT 38/09 A2989 RMK A01 T03760092  RH  018%=      5-min Rain = 0
KLO1 042342Z 09005KT 38/09 A2989 RMK A01 T03770089  RH  018%=      5-min Rain = 0
KLO1 042343Z 07006KT 38/09 A2989 RMK A01 T03770092  RH  018%=      5-min Rain = 0
KLO1 042344Z 07006KT 38/09 A2989 RMK A01 T03760092  RH  018%=      5-min Rain = 0
KLO1 042345Z 09006KT 38/10 A2989 RMK A01 T03750095  RH  018%=      5-min Rain = 0
KLO1 042346Z 11007KT 38/09 A2989 RMK A01 T03750091  RH  018%=      5-min Rain = 0
KLO1 042347Z 11007KT 38/09 A2989 RMK A01 T03750087  RH  017%=      5-min Rain = 0
KLO1 042348Z 10005KT 38/09 A2989 RMK A01 T03750088  RH  018%=      5-min Rain = 0
KLO1 042349Z 08004KT 38/09 A2989 RMK A01 T03750089  RH  018%=      5-min Rain = 0
KLO1 042350Z 10004KT 38/09 A2989 RMK A01 T03750093  RH  018%=      5-min Rain = 0
KLO1 042351Z 11006KT 38/09 A2989 RMK A01 T03760090  RH  018%=      5-min Rain = 0
KLO1 042352Z 11008KT 38/09 A2989 RMK A01 T03770088  RH  017%=      5-min Rain = 0
KLO1 042353Z 12007KT 38/09 A2989 RMK A01 T03760087  RH  017%=      5-min Rain = 0
KLO1 042354Z 12005KT 38/09 A2989 RMK A01 T03760087  RH  017%=      5-min Rain = 0
KLO1 042355Z 11007KT 38/09 A2989 RMK A01 T03750087  RH  017%=      5-min Rain = 0
KLO1 042356Z 11007KT 38/09 A2989 RMK A01 T03760086  RH  017%=      5-min Rain = 0
KLO1 042357Z 10006KT 38/09 A2989 RMK A01 T03760088  RH  017%=      5-min Rain = 0
KLO1 042358Z 11005KT 38/09 A2989 RMK A01 T03760087  RH  017%=      5-min Rain = 0
KLO1 042359Z 12008KT 38/09 A2989 RMK A01 T03760086  RH  017%=      5-min Rain = 0
KLO1 050000Z 11008KT 38/09 A2989 RMK A01 T03760086  RH  017%=      5-min Rain = 0
KLO1 050001Z 12008KT 38/09 A2989 RMK A01 T03770086  RH  017%=      5-min Rain = 0
KLO1 050002Z 12005KT 38/09 A2989 RMK A01 T03770086  RH  017%=      5-min Rain = 0
KLO1 050003Z 12004KT 38/08 A2989 RMK A01 T03770084  RH  017%=      5-min Rain = 0
KLO1 050004Z 14002KT 38/09 A2989 RMK A01 T03760085  RH  017%=      5-min Rain = 0
KLO1 050005Z 11004KT 38/09 A2989 RMK A01 T03760085  RH  017%=      5-min Rain = 0
KLO1 050006Z 13004KT 38/09 A2989 RMK A01 T03760086  RH  017%=      5-min Rain = 0
KLO1 050007Z 15004KT 38/09 A2989 RMK A01 T03760088  RH  017%=      5-min Rain = 0
KLO1 050008Z 13004KT 38/09 A2989 RMK A01 T03770089  RH  017%=      5-min Rain = 0
KLO1 050009Z 11006KT 38/09 A2989 RMK A01 T03780088  RH  017%=      5-min Rain = 0
KLO1 050010Z 09005KT 38/09 A2989 RMK A01 T03770087  RH  017%=      5-min Rain = 0
KLO1 050011Z 11005KT 38/09 A2989 RMK A01 T03760087  RH  017%=      5-min Rain = 0
KLO1 050012Z 12005KT 38/09 A2989 RMK A01 T03750087  RH  017%=      5-min Rain = 0
KLO1 050013Z 11006KT 38/09 A2989 RMK A01 T03760090  RH  018%=      5-min Rain = 0
KLO1 050014Z 10007KT 38/09 A2989 RMK A01 T03770093  RH  018%=      5-min Rain = 0
KLO1 050015Z 13007KT 38/09 A2989 RMK A01 T03780087  RH  017%=      5-min Rain = 0
KLO1 050016Z 13007KT 38/09 A2989 RMK A01 T03780087  RH  017%=      5-min Rain = 0
KLO1 050017Z 12010KT 38/09 A2989 RMK A01 T03780087  RH  017%=      5-min Rain = 0
KLO1 050018Z 14007KT 38/09 A2989 RMK A01 T03790087  RH  017%=      5-min Rain = 0
KLO1 050019Z 13006KT 38/09 A2989 RMK A01 T03780086  RH  017%=      5-min Rain = 0
KLO1 050020Z 13008KT 38/09 A2989 RMK A01 T03770086  RH  017%=      5-min Rain = 0
KLO1 050021Z 12012KT 38/09 A2989 RMK A01 T03790088  RH  017%=      5-min Rain = 0
KLO1 050022Z 12012KT 38/09 A2989 RMK A01 T03790088  RH  017%=      5-min Rain = 0
KLO1 050023Z 13014KT 38/09 A2989 RMK A01 T03780089  RH  017%=      5-min Rain = 0
KLO1 050024Z 12013KT 38/09 A2989 RMK A01 T03770089  RH  017%=      5-min Rain = 0
KLO1 050025Z 12012KT 38/09 A2989 RMK A01 T03760089  RH  018%=      5-min Rain = 0
KLO1 050026Z 11013KT 37/09 A2989 RMK A01 T03740089  RH  018%=      5-min Rain = 0
KLO1 050027Z 12012KT 37/09 A2989 RMK A01 T03740089  RH  018%=      5-min Rain = 0
KLO1 050028Z 13013KT 37/09 A2989 RMK A01 T03740090  RH  018%=      5-min Rain = 0
KLO1 050029Z 12013KT 38/09 A2989 RMK A01 T03750089  RH  018%=      5-min Rain = 0
KLO1 050030Z 11012KT 37/09 A2989 RMK A01 T03740088  RH  018%=      5-min Rain = 0
KLO1 050031Z 11011KT 37/09 A2989 RMK A01 T03730088  RH  018%=      5-min Rain = 0
KLO1 050032Z 12011KT 37/09 A2989 RMK A01 T03720088  RH  018%=      5-min Rain = 0
KLO1 050033Z 11011KT 37/09 A2989 RMK A01 T03720090  RH  018%=      5-min Rain = 0
KLO1 050034Z 11012KT 37/09 A2989 RMK A01 T03730089  RH  018%=      5-min Rain = 0
KLO1 050035Z 11013KT 37/09 A2989 RMK A01 T03710088  RH  018%=      5-min Rain = 0
KLO1 050036Z 11013KT 37/09 A2989 RMK A01 T03700089  RH  018%=      5-min Rain = 0
KLO1 050037Z 11011KT 37/09 A2989 RMK A01 T03700089  RH  018%=      5-min Rain = 0
KLO1 050038Z 10011KT 37/09 A299 RMK A01 T03700090  RH  018%=      5-min Rain = 0
KLO1 050039Z 09009KT 37/09 A299 RMK A01 T03700091  RH  018%=      5-min Rain = 0
KLO1 050040Z 11009KT 37/09 A299 RMK A01 T03700092  RH  018%=      5-min Rain = 0
KLO1 050041Z 11008KT 37/09 A299 RMK A01 T03700091  RH  018%=      5-min Rain = 0
KLO1 050042Z 11011KT 37/09 A299 RMK A01 T03700092  RH  018%=      5-min Rain = 0
KLO1 050043Z 11011KT 37/09 A299 RMK A01 T03700089  RH  018%=      5-min Rain = 0
KLO1 050044Z 12009KT 37/09 A299 RMK A01 T03690090  RH  018%=      5-min Rain = 0
KLO1 050045Z 12011KT 37/09 A299 RMK A01 T03690091  RH  018%=      5-min Rain = 0
KLO1 050046Z 12012KT 37/09 A299 RMK A01 T03680089  RH  018%=      5-min Rain = 0
KLO1 050047Z 13011KT 37/09 A299 RMK A01 T03670087  RH  018%=      5-min Rain = 0
KLO1 050048Z 13010KT 37/09 A299 RMK A01 T03660087  RH  018%=      5-min Rain = 0
KLO1 050049Z 12009KT 37/09 A299 RMK A01 T03660088  RH  018%=      5-min Rain = 0
KLO1 050050Z 13011KT 37/09 A299 RMK A01 T03650088  RH  018%=      5-min Rain = 0
KLO1 050051Z 12011KT 37/09 A299 RMK A01 T03650088  RH  019%=      5-min Rain = 0
KLO1 050052Z 12011KT 37/09 A299 RMK A01 T03650088  RH  019%=      5-min Rain = 0
KLO1 050053Z 13011KT 37/09 A299 RMK A01 T03650088  RH  019%=      5-min Rain = 0
KLO1 050054Z 13010KT 36/09 A299 RMK A01 T03640088  RH  019%=      5-min Rain = 0
KLO1 050055Z 13011KT 36/09 A299 RMK A01 T03640088  RH  019%=      5-min Rain = 0
KLO1 050056Z 13009KT 36/09 A299 RMK A01 T03640088  RH  019%=      5-min Rain = 0
KLO1 050057Z 13009KT 36/09 A299 RMK A01 T03640089  RH  019%=      5-min Rain = 0
KLO1 050058Z 13010KT 36/09 A299 RMK A01 T03630090  RH  019%=      5-min Rain = 0
KLO1 050059Z 13010KT 36/09 A299 RMK A01 T03630090  RH  019%=      5-min Rain = 0
KLO1 050100Z 13011KT 36/09 A299 RMK A01 T03620090  RH  019%=      5-min Rain = 0
KLO1 050101Z 13010KT 36/09 A299 RMK A01 T03620090  RH  019%=      5-min Rain = 0
KLO1 050102Z 13009KT 36/09 A299 RMK A01 T03610090  RH  019%=      5-min Rain = 0
KLO1 050103Z 14010KT 36/09 A299 RMK A01 T03610090  RH  019%=      5-min Rain = 0
KLO1 050104Z 13009KT 36/09 A299 RMK A01 T03620091  RH  019%=      5-min Rain = 0
KLO1 050105Z 13009KT 36/09 A299 RMK A01 T03620092  RH  019%=      5-min Rain = 0
KLO1 050106Z 13009KT 36/09 A299 RMK A01 T03620092  RH  019%=      5-min Rain = 0
KLO1 050107Z 13009KT 36/09 A2991 RMK A01 T03620093  RH  019%=      5-min Rain = 0
KLO1 050108Z 13009KT 36/09 A2991 RMK A01 T03610093  RH  020%=      5-min Rain = 0
KLO1 050109Z 13010KT 36/09 A2991 RMK A01 T03610093  RH  020%=      5-min Rain = 0
KLO1 050110Z 13009KT 36/09 A2991 RMK A01 T03610094  RH  020%=      5-min Rain = 0
KLO1 050111Z 13008KT 36/09 A2991 RMK A01 T03610093  RH  020%=      5-min Rain = 0
KLO1 050112Z 13010KT 36/09 A2991 RMK A01 T03610094  RH  020%=      5-min Rain = 0
KLO1 050113Z 13010KT 36/09 A2991 RMK A01 T03600094  RH  020%=      5-min Rain = 0
KLO1 050114Z 13010KT 36/09 A2991 RMK A01 T03600094  RH  020%=      5-min Rain = 0
KLO1 050115Z 13009KT 36/10 A2991 RMK A01 T03590095  RH  020%=      5-min Rain = 0
KLO1 050116Z 13011KT 36/10 A2991 RMK A01 T03590095  RH  020%=      5-min Rain = 0
KLO1 050117Z 13009KT 36/10 A2991 RMK A01 T03590095  RH  020%=      5-min Rain = 0
KLO1 050118Z 13009KT 36/10 A2991 RMK A01 T03590096  RH  020%=      5-min Rain = 0
KLO1 050119Z 13010KT 36/10 A2991 RMK A01 T03590096  RH  020%=      5-min Rain = 0
KLO1 050120Z 13010KT 36/10 A2991 RMK A01 T03590096  RH  020%=      5-min Rain = 0
KLO1 050121Z 13012KT 36/10 A2991 RMK A01 T03590096  RH  020%=      5-min Rain = 0
KLO1 050122Z 14013KT 36/10 A2991 RMK A01 T03580097  RH  020%=      5-min Rain = 0
KLO1 050123Z 14012KT 36/10 A2991 RMK A01 T03580098  RH  021%=      5-min Rain = 0
KLO1 050124Z 14010KT 36/10 A2991 RMK A01 T03580099  RH  021%=      5-min Rain = 0
KLO1 050125Z 14010KT 36/10 A2991 RMK A01 T03580099  RH  021%=      5-min Rain = 0
KLO1 050126Z 14011KT 36/10 A2991 RMK A01 T03580100  RH  021%=      5-min Rain = 0
KLO1 050127Z 14009KT 36/10 A2991 RMK A01 T03580099  RH  021%=      5-min Rain = 0
KLO1 050128Z 14009KT 36/10 A2991 RMK A01 T03580100  RH  021%=      5-min Rain = 0
KLO1 050129Z 14009KT 36/10 A2991 RMK A01 T03570100  RH  021%=      5-min Rain = 0
KLO1 050130Z 14010KT 36/10 A2991 RMK A01 T03570099  RH  021%=      5-min Rain = 0
KLO1 050131Z 14010KT 36/10 A2991 RMK A01 T03570100  RH  021%=      5-min Rain = 0
KLO1 050132Z 14011KT 36/10 A2991 RMK A01 T03570100  RH  021%=      5-min Rain = 0
KLO1 050133Z 14009KT 36/10 A2991 RMK A01 T03560101  RH  021%=      5-min Rain = 0
KLO1 050134Z 14010KT 36/10 A2991 RMK A01 T03560101  RH  021%=      5-min Rain = 0
KLO1 050135Z 14009KT 36/10 A2991 RMK A01 T03550100  RH  021%=      5-min Rain = 0
KLO1 050136Z 14009KT 36/10 A2991 RMK A01 T03550101  RH  021%=      5-min Rain = 0
KLO1 050137Z 14011KT 36/10 A2991 RMK A01 T03550100  RH  021%=      5-min Rain = 0
KLO1 050138Z 14011KT 36/10 A2991 RMK A01 T03550100  RH  021%=      5-min Rain = 0
KLO1 050139Z 14010KT 36/10 A2991 RMK A01 T03550101  RH  021%=      5-min Rain = 0
KLO1 050140Z 14010KT 35/10 A2991 RMK A01 T03540101  RH  021%=      5-min Rain = 0
KLO1 050141Z 14011KT 35/10 A2991 RMK A01 T03540101  RH  021%=      5-min Rain = 0
KLO1 050142Z 14011KT 35/10 A2991 RMK A01 T03540100  RH  021%=      5-min Rain = 0
KLO1 050143Z 14011KT 35/10 A2991 RMK A01 T03540100  RH  021%=      5-min Rain = 0
KLO1 050144Z 14011KT 35/10 A2992 RMK A01 T03530100  RH  021%=      5-min Rain = 0
KLO1 050145Z 13011KT 35/10 A2992 RMK A01 T03530100  RH  021%=      5-min Rain = 0
KLO1 050146Z 14010KT 35/10 A2992 RMK A01 T03530100  RH  021%=      5-min Rain = 0
KLO1 050147Z 14011KT 35/10 A2992 RMK A01 T03530100  RH  021%=      5-min Rain = 0
KLO1 050148Z 14010KT 35/10 A2992 RMK A01 T03520099  RH  021%=      5-min Rain = 0
KLO1 050149Z 14010KT 35/10 A2992 RMK A01 T03520100  RH  022%=      5-min Rain = 0
KLO1 050150Z 14010KT 35/10 A2992 RMK A01 T03510100  RH  022%=      5-min Rain = 0
KLO1 050151Z 14011KT 35/10 A2992 RMK A01 T03510099  RH  022%=      5-min Rain = 0
KLO1 050152Z 14010KT 35/10 A2992 RMK A01 T03500099  RH  022%=      5-min Rain = 0
KLO1 050153Z 14010KT 35/10 A2992 RMK A01 T03500099  RH  022%=      5-min Rain = 0
KLO1 050154Z 14010KT 35/10 A2992 RMK A01 T03490099  RH  022%=      5-min Rain = 0
KLO1 050155Z 14010KT 35/10 A2992 RMK A01 T03490099  RH  022%=      5-min Rain = 0
KLO1 050156Z 15011KT 35/10 A2992 RMK A01 T03490100  RH  022%=      5-min Rain = 0
KLO1 050157Z 14010KT 35/10 A2992 RMK A01 T03480100  RH  022%=      5-min Rain = 0
KLO1 050158Z 14010KT 35/10 A2993 RMK A01 T03480100  RH  022%=      5-min Rain = 0
KLO1 050159Z 14009KT 35/10 A2993 RMK A01 T03470100  RH  022%=      5-min Rain = 0
KLO1 050200Z 14009KT 35/10 A2993 RMK A01 T03470100  RH  022%=      5-min Rain = 0
KLO1 050201Z 14009KT 35/10 A2993 RMK A01 T03460100  RH  022%=      5-min Rain = 0
KLO1 050202Z 14009KT 35/10 A2993 RMK A01 T03460100  RH  022%=      5-min Rain = 0
KLO1 050203Z 14009KT 35/10 A2993 RMK A01 T03450099  RH  022%=      5-min Rain = 0
KLO1 050204Z 14009KT 35/10 A2993 RMK A01 T03450100  RH  022%=      5-min Rain = 0
KLO1 050205Z 14010KT 34/10 A2993 RMK A01 T03440099  RH  022%=      5-min Rain = 0
KLO1 050206Z 14010KT 34/10 A2993 RMK A01 T03440099  RH  022%=      5-min Rain = 0
KLO1 050207Z 13010KT 34/10 A2993 RMK A01 T03440099  RH  022%=      5-min Rain = 0
KLO1 050208Z 14010KT 34/10 A2993 RMK A01 T03440099  RH  022%=      5-min Rain = 0
KLO1 050209Z 13010KT 34/10 A2993 RMK A01 T03440099  RH  022%=      5-min Rain = 0
KLO1 050210Z 14010KT 34/10 A2993 RMK A01 T03440099  RH  022%=      5-min Rain = 0
KLO1 050211Z 14011KT 34/10 A2993 RMK A01 T03430099  RH  022%=      5-min Rain = 0
KLO1 050212Z 13010KT 34/10 A2993 RMK A01 T03440099  RH  022%=      5-min Rain = 0
KLO1 050213Z 13010KT 34/10 A2993 RMK A01 T03430099  RH  023%=      5-min Rain = 0
KLO1 050214Z 13010KT 34/10 A2993 RMK A01 T03430099  RH  023%=      5-min Rain = 0
KLO1 050215Z 13010KT 34/10 A2993 RMK A01 T03420099  RH  023%=      5-min Rain = 0
KLO1 050216Z 13012KT 34/10 A2993 RMK A01 T03420100  RH  023%=      5-min Rain = 0
KLO1 050217Z 13010KT 34/10 A2993 RMK A01 T03420099  RH  023%=      5-min Rain = 0
KLO1 050218Z 13010KT 34/10 A2993 RMK A01 T03420100  RH  023%=      5-min Rain = 0
KLO1 050219Z 13010KT 34/10 A2993 RMK A01 T03420100  RH  023%=      5-min Rain = 0
KLO1 050220Z 13010KT 34/10 A2993 RMK A01 T03420100  RH  023%=      5-min Rain = 0
KLO1 050221Z 13010KT 34/10 A2993 RMK A01 T03420100  RH  023%=      5-min Rain = 0
KLO1 050222Z 13010KT 34/10 A2993 RMK A01 T03420100  RH  023%=      5-min Rain = 0
KLO1 050223Z 13010KT 34/10 A2993 RMK A01 T03420100  RH  023%=      5-min Rain = 0
KLO1 050224Z 13011KT 34/10 A2993 RMK A01 T03410100  RH  023%=      5-min Rain = 0
KLO1 050225Z 13010KT 34/10 A2993 RMK A01 T03410100  RH  023%=      5-min Rain = 0
KLO1 050226Z 13010KT 34/10 A2993 RMK A01 T03410101  RH  023%=      5-min Rain = 0
KLO1 050227Z 13010KT 34/10 A2993 RMK A01 T03400101  RH  023%=      5-min Rain = 0
KLO1 050228Z 13010KT 34/10 A2993 RMK A01 T03400101  RH  023%=      5-min Rain = 0
KLO1 050229Z 13010KT 34/10 A2993 RMK A01 T03400101  RH  023%=      5-min Rain = 0
KLO1 050230Z 13010KT 34/10 A2993 RMK A01 T03390101  RH  023%=      5-min Rain = 0
KLO1 050231Z 13010KT 34/10 A2993 RMK A01 T03390101  RH  023%=      5-min Rain = 0
KLO1 050232Z 13010KT 34/10 A2993 RMK A01 T03390101  RH  023%=      5-min Rain = 0
KLO1 050233Z 13010KT 34/10 A2993 RMK A01 T03390101  RH  023%=      5-min Rain = 0
KLO1 050234Z 13010KT 34/10 A2993 RMK A01 T03380102  RH  024%=      5-min Rain = 0
KLO1 050235Z 13011KT 34/10 A2993 RMK A01 T03380101  RH  024%=      5-min Rain = 0
KLO1 050236Z 13010KT 34/10 A2993 RMK A01 T03370102  RH  024%=      5-min Rain = 0
KLO1 050237Z 13009KT 34/10 A2993 RMK A01 T03370102  RH  024%=      5-min Rain = 0
KLO1 050238Z 13010KT 34/10 A2994 RMK A01 T03360102  RH  024%=      5-min Rain = 0
KLO1 050239Z 13009KT 34/10 A2994 RMK A01 T03360103  RH  024%=      5-min Rain = 0
KLO1 050240Z 13010KT 34/10 A2994 RMK A01 T03350103  RH  024%=      5-min Rain = 0
KLO1 050241Z 13010KT 34/10 A2994 RMK A01 T03360104  RH  024%=      5-min Rain = 0
KLO1 050242Z 13009KT 34/10 A2994 RMK A01 T03350103  RH  024%=      5-min Rain = 0
KLO1 050243Z 13009KT 33/10 A2994 RMK A01 T03340104  RH  024%=      5-min Rain = 0
KLO1 050244Z 13010KT 33/10 A2994 RMK A01 T03340104  RH  024%=      5-min Rain = 0
KLO1 050245Z 13009KT 33/10 A2994 RMK A01 T03330104  RH  025%=      5-min Rain = 0
KLO1 050246Z 14009KT 33/10 A2994 RMK A01 T03320104  RH  025%=      5-min Rain = 0
KLO1 050247Z 14009KT 33/10 A2994 RMK A01 T03320104  RH  025%=      5-min Rain = 0
KLO1 050248Z 14009KT 33/11 A2994 RMK A01 T03320105  RH  025%=      5-min Rain = 0
KLO1 050249Z 14008KT 33/11 A2994 RMK A01 T03310105  RH  025%=      5-min Rain = 0
KLO1 050250Z 14009KT 33/11 A2994 RMK A01 T03310105  RH  025%=      5-min Rain = 0
KLO1 050251Z 13009KT 33/11 A2994 RMK A01 T03300105  RH  025%=      5-min Rain = 0
KLO1 050252Z 13008KT 33/11 A2994 RMK A01 T03290105  RH  025%=      5-min Rain = 0
KLO1 050253Z 13008KT 33/11 A2994 RMK A01 T03290106  RH  025%=      5-min Rain = 0
KLO1 050254Z 13008KT 33/11 A2994 RMK A01 T03290106  RH  026%=      5-min Rain = 0
KLO1 050255Z 13008KT 33/11 A2994 RMK A01 T03280106  RH  026%=      5-min Rain = 0
KLO1 050256Z 13008KT 33/11 A2994 RMK A01 T03270107  RH  026%=      5-min Rain = 0
KLO1 050257Z 13009KT 33/11 A2994 RMK A01 T03260106  RH  026%=      5-min Rain = 0
KLO1 050258Z 13008KT 33/11 A2994 RMK A01 T03260107  RH  026%=      5-min Rain = 0
KLO1 050259Z 13008KT 33/11 A2994 RMK A01 T03260107  RH  026%=      5-min Rain = 0
KLO1 050300Z 13008KT 33/11 A2994 RMK A01 T03260108  RH  026%=      5-min Rain = 0
KLO1 050301Z 13009KT 33/11 A2994 RMK A01 T03250108  RH  026%=      5-min Rain = 0
KLO1 050302Z 13009KT 33/11 A2994 RMK A01 T03250108  RH  027%=      5-min Rain = 0
KLO1 050303Z 13008KT 32/11 A2994 RMK A01 T03240108  RH  027%=      5-min Rain = 0
KLO1 050304Z 13008KT 32/11 A2994 RMK A01 T03240109  RH  027%=      5-min Rain = 0
KLO1 050305Z 13008KT 32/11 A2994 RMK A01 T03240109  RH  027%=      5-min Rain = 0
KLO1 050306Z 13009KT 32/11 A2994 RMK A01 T03240109  RH  027%=      5-min Rain = 0
KLO1 050307Z 13009KT 32/11 A2994 RMK A01 T03230110  RH  027%=      5-min Rain = 0
KLO1 050308Z 13008KT 32/11 A2994 RMK A01 T03230110  RH  027%=      5-min Rain = 0
KLO1 050309Z 13009KT 32/11 A2994 RMK A01 T03220110  RH  027%=      5-min Rain = 0
KLO1 050310Z 13009KT 32/11 A2994 RMK A01 T03220110  RH  027%=      5-min Rain = 0
KLO1 050311Z 13009KT 32/11 A2994 RMK A01 T03220111  RH  027%=      5-min Rain = 0
KLO1 050312Z 13009KT 32/11 A2994 RMK A01 T03220111  RH  028%=      5-min Rain = 0
KLO1 050313Z 13009KT 32/11 A2994 RMK A01 T03220111  RH  028%=      5-min Rain = 0
KLO1 050314Z 13009KT 32/11 A2995 RMK A01 T03220112  RH  028%=      5-min Rain = 0
KLO1 050315Z 13009KT 32/11 A2995 RMK A01 T03210112  RH  028%=      5-min Rain = 0
KLO1 050316Z 13009KT 32/11 A2995 RMK A01 T03210112  RH  028%=      5-min Rain = 0
KLO1 050317Z 13009KT 32/11 A2995 RMK A01 T03210112  RH  028%=      5-min Rain = 0
KLO1 050318Z 13008KT 32/11 A2995 RMK A01 T03210112  RH  028%=      5-min Rain = 0
KLO1 050319Z 13008KT 32/11 A2995 RMK A01 T03210112  RH  028%=      5-min Rain = 0
KLO1 050320Z 13008KT 32/11 A2995 RMK A01 T03200112  RH  028%=      5-min Rain = 0
KLO1 050321Z 13008KT 32/11 A2995 RMK A01 T03200112  RH  028%=      5-min Rain = 0
KLO1 050322Z 13008KT 32/11 A2995 RMK A01 T03190112  RH  028%=      5-min Rain = 0
KLO1 050323Z 13008KT 32/11 A2995 RMK A01 T03190112  RH  028%=      5-min Rain = 0
KLO1 050324Z 13008KT 32/11 A2995 RMK A01 T03180112  RH  028%=      5-min Rain = 0
KLO1 050325Z 13008KT 32/11 A2995 RMK A01 T03180113  RH  028%=      5-min Rain = 0
KLO1 050326Z 13009KT 32/11 A2995 RMK A01 T03180112  RH  028%=      5-min Rain = 0
KLO1 050327Z 13009KT 32/11 A2995 RMK A01 T03180113  RH  028%=      5-min Rain = 0
KLO1 050328Z 13008KT 32/11 A2995 RMK A01 T03170113  RH  028%=      5-min Rain = 0
KLO1 050329Z 13009KT 32/11 A2995 RMK A01 T03170113  RH  029%=      5-min Rain = 0
KLO1 050330Z 13009KT 32/11 A2995 RMK A01 T03170113  RH  029%=      5-min Rain = 0
KLO1 050331Z 13009KT 32/11 A2995 RMK A01 T03170113  RH  029%=      5-min Rain = 0
KLO1 050332Z 13009KT 32/11 A2995 RMK A01 T03170113  RH  029%=      5-min Rain = 0
KLO1 050333Z 13009KT 32/11 A2995 RMK A01 T03160114  RH  029%=      5-min Rain = 0
KLO1 050334Z 13009KT 32/11 A2995 RMK A01 T03160114  RH  029%=      5-min Rain = 0
KLO1 050335Z 13009KT 32/11 A2995 RMK A01 T03150114  RH  029%=      5-min Rain = 0
KLO1 050336Z 13008KT 32/11 A2995 RMK A01 T03150114  RH  029%=      5-min Rain = 0
KLO1 050337Z 13008KT 32/12 A2995 RMK A01 T03150115  RH  029%=      5-min Rain = 0
KLO1 050338Z 13009KT 31/11 A2995 RMK A01 T03140114  RH  029%=      5-min Rain = 0
KLO1 050339Z 13008KT 31/11 A2995 RMK A01 T03130114  RH  029%=      5-min Rain = 0
KLO1 050340Z 13009KT 31/11 A2995 RMK A01 T03130114  RH  030%=      5-min Rain = 0
KLO1 050341Z 13009KT 31/12 A2995 RMK A01 T03130115  RH  030%=      5-min Rain = 0
KLO1 050342Z 13008KT 31/12 A2995 RMK A01 T03120115  RH  030%=      5-min Rain = 0
KLO1 050343Z 13008KT 31/12 A2995 RMK A01 T03120115  RH  030%=      5-min Rain = 0
KLO1 050344Z 13009KT 31/12 A2995 RMK A01 T03110115  RH  030%=      5-min Rain = 0
KLO1 050345Z 13008KT 31/12 A2995 RMK A01 T03110115  RH  030%=      5-min Rain = 0
KLO1 050346Z 13008KT 31/12 A2995 RMK A01 T03110115  RH  030%=      5-min Rain = 0
KLO1 050347Z 13008KT 31/12 A2995 RMK A01 T03100115  RH  030%=      5-min Rain = 0
KLO1 050348Z 13009KT 31/12 A2995 RMK A01 T03100115  RH  030%=      5-min Rain = 0
KLO1 050349Z 13009KT 31/12 A2995 RMK A01 T03100115  RH  030%=      5-min Rain = 0
KLO1 050350Z 13009KT 31/12 A2995 RMK A01 T03100115  RH  030%=      5-min Rain = 0
KLO1 050351Z 13009KT 31/12 A2995 RMK A01 T03100115  RH  030%=      5-min Rain = 0
KLO1 050352Z 13009KT 31/12 A2995 RMK A01 T03100115  RH  030%=      5-min Rain = 0
KLO1 050353Z 13009KT 31/11 A2995 RMK A01 T03090114  RH  030%=      5-min Rain = 0
KLO1 050354Z 13009KT 31/12 A2995 RMK A01 T03090115  RH  030%=      5-min Rain = 0
KLO1 050355Z 13009KT 31/11 A2995 RMK A01 T03090114  RH  030%=      5-min Rain = 0
KLO1 050356Z 13009KT 31/11 A2995 RMK A01 T03090114  RH  030%=      5-min Rain = 0
KLO1 050357Z 13009KT 31/11 A2995 RMK A01 T03090114  RH  030%=      5-min Rain = 0
KLO1 050358Z 13010KT 31/11 A2995 RMK A01 T03090114  RH  030%=      5-min Rain = 0
KLO1 050359Z 13010KT 31/11 A2995 RMK A01 T03090114  RH  030%=      5-min Rain = 0
KLO1 050400Z 13010KT 31/11 A2995 RMK A01 T03090114  RH  030%=      5-min Rain = 0
KLO1 050401Z 13010KT 31/11 A2995 RMK A01 T03080114  RH  030%=      5-min Rain = 0
KLO1 050402Z 13009KT 31/11 A2995 RMK A01 T03080114  RH  030%=      5-min Rain = 0
KLO1 050403Z 13010KT 31/11 A2995 RMK A01 T03070113  RH  030%=      5-min Rain = 0
KLO1 050404Z 13010KT 31/11 A2995 RMK A01 T03080114  RH  030%=      5-min Rain = 0
KLO1 050405Z 13010KT 31/11 A2995 RMK A01 T03070113  RH  030%=      5-min Rain = 0
KLO1 050406Z 13010KT 31/11 A2995 RMK A01 T03070113  RH  030%=      5-min Rain = 0
KLO1 050407Z 13010KT 31/11 A2995 RMK A01 T03070113  RH  030%=      5-min Rain = 0
KLO1 050408Z 13010KT 31/11 A2994 RMK A01 T03060113  RH  030%=      5-min Rain = 0
KLO1 050409Z 14010KT 31/11 A2994 RMK A01 T03060113  RH  030%=      5-min Rain = 0
KLO1 050410Z 13010KT 31/11 A2994 RMK A01 T03060113  RH  030%=      5-min Rain = 0
KLO1 050411Z 14010KT 31/11 A2994 RMK A01 T03050112  RH  030%=      5-min Rain = 0
KLO1 050412Z 14010KT 31/11 A2994 RMK A01 T03060112  RH  030%=      5-min Rain = 0
KLO1 050413Z 14010KT 31/11 A2994 RMK A01 T03050112  RH  030%=      5-min Rain = 0
KLO1 050414Z 14009KT 31/11 A2994 RMK A01 T03050112  RH  030%=      5-min Rain = 0
KLO1 050415Z 14009KT 31/11 A2994 RMK A01 T03060112  RH  030%=      5-min Rain = 0
KLO1 050416Z 14010KT 31/11 A2994 RMK A01 T03050112  RH  030%=      5-min Rain = 0
KLO1 050417Z 14009KT 31/11 A2994 RMK A01 T03050112  RH  030%=      5-min Rain = 0
KLO1 050418Z 14008KT 31/11 A2994 RMK A01 T03050112  RH  030%=      5-min Rain = 0
KLO1 050419Z 14008KT 31/11 A2994 RMK A01 T03050112  RH  031%=      5-min Rain = 0
KLO1 050420Z 14009KT 30/11 A2994 RMK A01 T03040112  RH  031%=      5-min Rain = 0
KLO1 050421Z 14009KT 30/11 A2994 RMK A01 T03040112  RH  031%=      5-min Rain = 0
KLO1 050422Z 14008KT 30/11 A2994 RMK A01 T03040113  RH  031%=      5-min Rain = 0
KLO1 050423Z 14008KT 30/11 A2995 RMK A01 T03040113  RH  031%=      5-min Rain = 0
KLO1 050424Z 14008KT 30/11 A2995 RMK A01 T03030113  RH  031%=      5-min Rain = 0
KLO1 050425Z 14007KT 30/11 A2995 RMK A01 T03030113  RH  031%=      5-min Rain = 0
KLO1 050426Z 14007KT 30/11 A2995 RMK A01 T03020114  RH  031%=      5-min Rain = 0
KLO1 050427Z 14007KT 30/11 A2995 RMK A01 T03010114  RH  031%=      5-min Rain = 0
KLO1 050428Z 14007KT 30/11 A2995 RMK A01 T03010114  RH  032%=      5-min Rain = 0
KLO1 050429Z 14007KT 30/11 A2995 RMK A01 T03000114  RH  032%=      5-min Rain = 0
KLO1 050430Z 14007KT 30/11 A2995 RMK A01 T02990114  RH  032%=      5-min Rain = 0
KLO1 050431Z 14007KT 30/12 A2995 RMK A01 T02990115  RH  032%=      5-min Rain = 0
KLO1 050432Z 14007KT 30/12 A2995 RMK A01 T02980115  RH  032%=      5-min Rain = 0
KLO1 050433Z 14007KT 30/12 A2995 RMK A01 T02980115  RH  032%=      5-min Rain = 0
KLO1 050434Z 14007KT 30/12 A2994 RMK A01 T02970115  RH  032%=      5-min Rain = 0
KLO1 050435Z 14007KT 30/12 A2994 RMK A01 T02970115  RH  033%=      5-min Rain = 0
KLO1 050436Z 14007KT 30/12 A2994 RMK A01 T02960115  RH  033%=      5-min Rain = 0
KLO1 050437Z 14007KT 30/12 A2994 RMK A01 T02960115  RH  033%=      5-min Rain = 0
KLO1 050438Z 14007KT 30/12 A2994 RMK A01 T02950116  RH  033%=      5-min Rain = 0
KLO1 050439Z 14007KT 30/12 A2994 RMK A01 T02950116  RH  033%=      5-min Rain = 0
KLO1 050440Z 15007KT 29/12 A2994 RMK A01 T02940116  RH  033%=      5-min Rain = 0
KLO1 050441Z 15007KT 29/12 A2994 RMK A01 T02940116  RH  033%=      5-min Rain = 0
KLO1 050442Z 15007KT 29/12 A2994 RMK A01 T02930116  RH  033%=      5-min Rain = 0
KLO1 050443Z 15007KT 29/12 A2994 RMK A01 T02920116  RH  034%=      5-min Rain = 0
KLO1 050444Z 15007KT 29/12 A2994 RMK A01 T02920117  RH  034%=      5-min Rain = 0
KLO1 050445Z 15007KT 29/12 A2994 RMK A01 T02910118  RH  034%=      5-min Rain = 0
KLO1 050446Z 15007KT 29/12 A2994 RMK A01 T02900118  RH  035%=      5-min Rain = 0
KLO1 050447Z 15007KT 29/12 A2994 RMK A01 T02900119  RH  035%=      5-min Rain = 0
KLO1 050448Z 15007KT 29/12 A2994 RMK A01 T02900119  RH  035%=      5-min Rain = 0
KLO1 050449Z 15007KT 29/12 A2994 RMK A01 T02900120  RH  035%=      5-min Rain = 0
KLO1 050450Z 15007KT 29/12 A2994 RMK A01 T02900121  RH  035%=      5-min Rain = 0
KLO1 050451Z 15007KT 29/12 A2994 RMK A01 T02890120  RH  035%=      5-min Rain = 0
KLO1 050452Z 15007KT 29/12 A2994 RMK A01 T02890121  RH  035%=      5-min Rain = 0
KLO1 050453Z 16007KT 29/12 A2994 RMK A01 T02890121  RH  035%=      5-min Rain = 0
KLO1 050454Z 16007KT 29/12 A2994 RMK A01 T02880121  RH  036%=      5-min Rain = 0
KLO1 050455Z 16007KT 29/12 A2994 RMK A01 T02870120  RH  036%=      5-min Rain = 0
KLO1 050456Z 16007KT 29/12 A2994 RMK A01 T02870120  RH  036%=      5-min Rain = 0
KLO1 050457Z 16008KT 29/12 A2994 RMK A01 T02870119  RH  035%=      5-min Rain = 0
KLO1 050458Z 15007KT 29/12 A2994 RMK A01 T02870119  RH  035%=      5-min Rain = 0
KLO1 050459Z 15007KT 29/12 A2994 RMK A01 T02870119  RH  035%=      5-min Rain = 0

Page generated in 0.1195 seconds.